PWSweather.com
Personal Weather Stations
Station Observations
EI4HQ
Cork Harbour, CobhIE

Cork HarbourCobhIE

Lat: 51.85, Lon: -8.29

Elevation: 252

Station Type: Davis Vantage Pro2

http://www.corkharbourweather.ie

High Low Average
Temperature 71.8°F22.1°F 59.7°F15.4°F 63.3°F17.4°F
Dew Point 64.2°F17.9°F 57.9°F14.4°F 59.3°F15.2°F
Winds 10.0 mph -16.1 mph - Calm Calm 6.0 mph 9.7 mph
Wind Gusts 25.0 mph40.2 mph 1.0 mph1.6 mph 13.1 mph21.1 mph
Humidity 94% 74% 87%
Pressure 30.13 in1020.30 in 30.01 in1016.30 in -
Precipitation 0.40 in10.20 in - -
Hour Temp Dew Point Humidity Winds Wind Gusts Pressure Precip Precip Rate Daily Precip Total
12:00 AM 62.2°F16.8°C 57.9°F14.4°C 86% 2.0 mph NNW3.2 kmh NNW 5.0 mph8.0 kmh 30.13 in1020.3 mb 0.00 in0.0 mm 0.00 in0.0 mm 0.00 in0.0 mm
12:03 AM 62.2°F16.8°C 57.9°F14.4°C 86% 2.0 mph NNW3.2 kmh NNW 4.0 mph6.4 kmh 30.13 in1020.3 mb 0.00 in0.0 mm 0.00 in0.0 mm 0.00 in0.0 mm
12:06 AM 62.2°F16.8°C 57.9°F14.4°C 86% 2.0 mph NNW3.2 kmh NNW 4.0 mph6.4 kmh 30.13 in1020.3 mb 0.00 in0.0 mm 0.00 in0.0 mm 0.00 in0.0 mm
12:09 AM 62.2°F16.8°C 57.9°F14.4°C 86% 3.0 mph N4.8 kmh N 4.0 mph6.4 kmh 30.13 in1020.3 mb 0.00 in0.0 mm 0.00 in0.0 mm 0.00 in0.0 mm
12:12 AM 62.2°F16.8°C 57.9°F14.4°C 86% 2.0 mph N3.2 kmh N 4.0 mph6.4 kmh 30.13 in1020.3 mb 0.00 in0.0 mm 0.00 in0.0 mm 0.00 in0.0 mm
12:15 AM 62.2°F16.8°C 57.9°F14.4°C 86% 2.0 mph N3.2 kmh N 4.0 mph6.4 kmh 30.13 in1020.3 mb 0.00 in0.0 mm 0.00 in0.0 mm 0.00 in0.0 mm
12:18 AM 62.2°F16.8°C 57.9°F14.4°C 86% 2.0 mph N3.2 kmh N 4.0 mph6.4 kmh 30.13 in1020.3 mb 0.00 in0.0 mm 0.00 in0.0 mm 0.00 in0.0 mm
12:21 AM 62.2°F16.8°C 57.9°F14.4°C 86% 2.0 mph N3.2 kmh N 4.0 mph6.4 kmh 30.13 in1020.3 mb 0.00 in0.0 mm 0.00 in0.0 mm 0.00 in0.0 mm
12:24 AM 62.2°F16.8°C 57.9°F14.4°C 86% 3.0 mph N4.8 kmh N 4.0 mph6.4 kmh 30.13 in1020.3 mb 0.00 in0.0 mm 0.00 in0.0 mm 0.00 in0.0 mm
12:27 AM 62.2°F16.8°C 57.9°F14.4°C 86% 3.0 mph NNW4.8 kmh NNW 5.0 mph8.0 kmh 30.13 in1020.3 mb 0.00 in0.0 mm 0.00 in0.0 mm 0.00 in0.0 mm
12:30 AM 62.2°F16.8°C 57.9°F14.4°C 86% 3.0 mph NNW4.8 kmh NNW 5.0 mph8.0 kmh 30.12 in1020.0 mb 0.00 in0.0 mm 0.00 in0.0 mm 0.00 in0.0 mm
12:33 AM 62.2°F16.8°C 57.9°F14.4°C 86% 4.0 mph NNW6.4 kmh NNW 8.0 mph12.9 kmh 30.12 in1020.0 mb 0.00 in0.0 mm 0.00 in0.0 mm 0.00 in0.0 mm
12:36 AM 62.2°F16.8°C 57.9°F14.4°C 86% 5.0 mph NNW8.0 kmh NNW 8.0 mph12.9 kmh 30.12 in1020.0 mb 0.00 in0.0 mm 0.00 in0.0 mm 0.00 in0.0 mm
12:39 AM 62.2°F16.8°C 57.9°F14.4°C 86% 5.0 mph NNW8.0 kmh NNW 8.0 mph12.9 kmh 30.12 in1020.0 mb 0.00 in0.0 mm 0.00 in0.0 mm 0.00 in0.0 mm
12:42 AM 62.2°F16.8°C 57.9°F14.4°C 86% 5.0 mph NNW8.0 kmh NNW 9.0 mph14.5 kmh 30.12 in1020.0 mb 0.00 in0.0 mm 0.00 in0.0 mm 0.00 in0.0 mm
12:45 AM 62.2°F16.8°C 57.9°F14.4°C 86% 5.0 mph NNW8.0 kmh NNW 9.0 mph14.5 kmh 30.12 in1020.0 mb 0.00 in0.0 mm 0.00 in0.0 mm 0.00 in0.0 mm
12:48 AM 62.2°F16.8°C 57.9°F14.4°C 86% 5.0 mph NNW8.0 kmh NNW 9.0 mph14.5 kmh 30.12 in1020.0 mb 0.00 in0.0 mm 0.00 in0.0 mm 0.00 in0.0 mm
12:51 AM 62.2°F16.8°C 57.9°F14.4°C 86% 6.0 mph NNW9.7 kmh NNW 9.0 mph14.5 kmh 30.12 in1020.0 mb 0.00 in0.0 mm 0.00 in0.0 mm 0.00 in0.0 mm
12:54 AM 62.2°F16.8°C 57.9°F14.4°C 86% 6.0 mph NNW9.7 kmh NNW 9.0 mph14.5 kmh 30.12 in1020.0 mb 0.00 in0.0 mm 0.00 in0.0 mm 0.00 in0.0 mm
12:57 AM 62.2°F16.8°C 57.9°F14.4°C 86% 5.0 mph NNW8.0 kmh NNW 9.0 mph14.5 kmh 30.12 in1020.0 mb 0.00 in0.0 mm 0.00 in0.0 mm 0.00 in0.0 mm
01:00 AM 62.2°F16.8°C 57.9°F14.4°C 86% 4.0 mph NNW6.4 kmh NNW 9.0 mph14.5 kmh 30.12 in1020.0 mb 0.00 in0.0 mm 0.00 in0.0 mm 0.00 in0.0 mm
01:03 AM 62.2°F16.8°C 57.9°F14.4°C 86% 4.0 mph NNW6.4 kmh NNW 6.0 mph9.7 kmh 30.12 in1020.0 mb 0.00 in0.0 mm 0.00 in0.0 mm 0.00 in0.0 mm
01:06 AM 62.2°F16.8°C 57.9°F14.4°C 86% 4.0 mph N6.4 kmh N 6.0 mph9.7 kmh 30.12 in1020.0 mb 0.00 in0.0 mm 0.00 in0.0 mm 0.00 in0.0 mm
01:09 AM 62.2°F16.8°C 57.9°F14.4°C 86% 5.0 mph N8.0 kmh N 8.0 mph12.9 kmh 30.12 in1020.0 mb 0.00 in0.0 mm 0.00 in0.0 mm 0.00 in0.0 mm
01:12 AM 62.2°F16.8°C 57.9°F14.4°C 86% 5.0 mph N8.0 kmh N 8.0 mph12.9 kmh 30.12 in1020.0 mb 0.00 in0.0 mm 0.00 in0.0 mm 0.00 in0.0 mm
01:15 AM 62.2°F16.8°C 57.9°F14.4°C 86% 5.0 mph N8.0 kmh N 8.0 mph12.9 kmh 30.12 in1020.0 mb 0.00 in0.0 mm 0.00 in0.0 mm 0.00 in0.0 mm
01:18 AM 62.2°F16.8°C 57.9°F14.4°C 86% 5.0 mph NNW8.0 kmh NNW 9.0 mph14.5 kmh 30.12 in1020.0 mb 0.00 in0.0 mm 0.00 in0.0 mm 0.00 in0.0 mm
01:21 AM 62.2°F16.8°C 57.9°F14.4°C 86% 5.0 mph NNW8.0 kmh NNW 9.0 mph14.5 kmh 30.12 in1020.0 mb 0.00 in0.0 mm 0.00 in0.0 mm 0.00 in0.0 mm
01:24 AM 62.2°F16.8°C 57.9°F14.4°C 86% 5.0 mph NNW8.0 kmh NNW 9.0 mph14.5 kmh 30.12 in1020.0 mb 0.00 in0.0 mm 0.00 in0.0 mm 0.00 in0.0 mm
01:27 AM 62.2°F16.8°C 57.9°F14.4°C 86% 5.0 mph NNW8.0 kmh NNW 8.0 mph12.9 kmh 30.12 in1020.0 mb 0.00 in0.0 mm 0.00 in0.0 mm 0.00 in0.0 mm
01:30 AM 62.2°F16.8°C 57.9°F14.4°C 86% 5.0 mph N8.0 kmh N 8.0 mph12.9 kmh 30.12 in1020.0 mb 0.00 in0.0 mm 0.00 in0.0 mm 0.00 in0.0 mm
01:33 AM 62.2°F16.8°C 57.9°F14.4°C 86% 5.0 mph N8.0 kmh N 8.0 mph12.9 kmh 30.12 in1020.0 mb 0.00 in0.0 mm 0.00 in0.0 mm 0.00 in0.0 mm
01:36 AM 62.2°F16.8°C 57.9°F14.4°C 86% 5.0 mph N8.0 kmh N 8.0 mph12.9 kmh 30.12 in1020.0 mb 0.00 in0.0 mm 0.00 in0.0 mm 0.00 in0.0 mm
01:39 AM 62.2°F16.8°C 57.9°F14.4°C 86% 5.0 mph NNW8.0 kmh NNW 9.0 mph14.5 kmh 30.12 in1020.0 mb 0.00 in0.0 mm 0.00 in0.0 mm 0.00 in0.0 mm
01:42 AM 62.2°F16.8°C 57.9°F14.4°C 86% 5.0 mph NNW8.0 kmh NNW 9.0 mph14.5 kmh 30.12 in1020.0 mb 0.00 in0.0 mm 0.00 in0.0 mm 0.00 in0.0 mm
01:45 AM 62.2°F16.8°C 57.9°F14.4°C 86% 5.0 mph NNW8.0 kmh NNW 9.0 mph14.5 kmh 30.12 in1020.0 mb 0.00 in0.0 mm 0.00 in0.0 mm 0.00 in0.0 mm
01:48 AM 62.2°F16.8°C 57.9°F14.4°C 86% 4.0 mph NNW6.4 kmh NNW 8.0 mph12.9 kmh 30.12 in1020.0 mb 0.00 in0.0 mm 0.00 in0.0 mm 0.00 in0.0 mm
01:51 AM 62.2°F16.8°C 57.9°F14.4°C 86% 4.0 mph NNW6.4 kmh NNW 6.0 mph9.7 kmh 30.12 in1020.0 mb 0.00 in0.0 mm 0.00 in0.0 mm 0.00 in0.0 mm
01:54 AM 62.2°F16.8°C 57.9°F14.4°C 86% 4.0 mph NNW6.4 kmh NNW 5.0 mph8.0 kmh 30.12 in1020.0 mb 0.00 in0.0 mm 0.00 in0.0 mm 0.00 in0.0 mm
01:57 AM 62.2°F16.8°C 57.9°F14.4°C 86% 4.0 mph NNW6.4 kmh NNW 5.0 mph8.0 kmh 30.12 in1020.0 mb 0.00 in0.0 mm 0.00 in0.0 mm 0.00 in0.0 mm
02:00 AM 62.2°F16.8°C 57.9°F14.4°C 86% 4.0 mph N6.4 kmh N 5.0 mph8.0 kmh 30.12 in1020.0 mb 0.00 in0.0 mm 0.00 in0.0 mm 0.00 in0.0 mm
02:03 AM 62.2°F16.8°C 57.9°F14.4°C 86% 3.0 mph N4.8 kmh N 5.0 mph8.0 kmh 30.12 in1020.0 mb 0.00 in0.0 mm 0.00 in0.0 mm 0.00 in0.0 mm
02:06 AM 62.2°F16.8°C 57.9°F14.4°C 86% 3.0 mph N4.8 kmh N 5.0 mph8.0 kmh 30.12 in1020.0 mb 0.00 in0.0 mm 0.00 in0.0 mm 0.00 in0.0 mm
02:09 AM 62.2°F16.8°C 57.9°F14.4°C 86% 2.0 mph N3.2 kmh N 4.0 mph6.4 kmh 30.12 in1020.0 mb 0.00 in0.0 mm 0.00 in0.0 mm 0.00 in0.0 mm
02:12 AM 62.2°F16.8°C 57.9°F14.4°C 86% 2.0 mph N3.2 kmh N 4.0 mph6.4 kmh 30.12 in1020.0 mb 0.00 in0.0 mm 0.00 in0.0 mm 0.00 in0.0 mm
02:15 AM 62.2°F16.8°C 57.9°F14.4°C 86% 3.0 mph N4.8 kmh N 4.0 mph6.4 kmh 30.12 in1020.0 mb 0.00 in0.0 mm 0.00 in0.0 mm 0.00 in0.0 mm
02:18 AM 62.2°F16.8°C 57.9°F14.4°C 86% 3.0 mph N4.8 kmh N 4.0 mph6.4 kmh 30.12 in1020.0 mb 0.00 in0.0 mm 0.00 in0.0 mm 0.00 in0.0 mm
02:21 AM 62.2°F16.8°C 57.9°F14.4°C 86% 3.0 mph NNW4.8 kmh NNW 4.0 mph6.4 kmh 30.12 in1020.0 mb 0.00 in0.0 mm 0.00 in0.0 mm 0.00 in0.0 mm
02:24 AM 62.2°F16.8°C 57.9°F14.4°C 86% 2.0 mph NNW3.2 kmh NNW 4.0 mph6.4 kmh 30.12 in1020.0 mb 0.00 in0.0 mm 0.00 in0.0 mm 0.00 in0.0 mm
02:27 AM 62.2°F16.8°C 57.9°F14.4°C 86% 2.0 mph NNW3.2 kmh NNW 4.0 mph6.4 kmh 30.12 in1020.0 mb 0.00 in0.0 mm 0.00 in0.0 mm 0.00 in0.0 mm
02:30 AM 62.2°F16.8°C 57.9°F14.4°C 86% 2.0 mph NNW3.2 kmh NNW 3.0 mph4.8 kmh 30.12 in1020.0 mb 0.00 in0.0 mm 0.00 in0.0 mm 0.00 in0.0 mm
02:33 AM 62.2°F16.8°C 57.9°F14.4°C 86% 1.0 mph NNW1.6 kmh NNW 3.0 mph4.8 kmh 30.12 in1020.0 mb 0.00 in0.0 mm 0.00 in0.0 mm 0.00 in0.0 mm
02:36 AM 62.2°F16.8°C 57.9°F14.4°C 86% 1.0 mph NNW1.6 kmh NNW 3.0 mph4.8 kmh 30.12 in1020.0 mb 0.00 in0.0 mm 0.00 in0.0 mm 0.00 in0.0 mm
02:39 AM 62.2°F16.8°C 57.9°F14.4°C 86% 1.0 mph N1.6 kmh N 3.0 mph4.8 kmh 30.12 in1020.0 mb 0.00 in0.0 mm 0.00 in0.0 mm 0.00 in0.0 mm
02:42 AM 62.2°F16.8°C 57.9°F14.4°C 86% 1.0 mph N1.6 kmh N 2.0 mph3.2 kmh 30.12 in1020.0 mb 0.00 in0.0 mm 0.00 in0.0 mm 0.00 in0.0 mm
02:45 AM 62.2°F16.8°C 57.9°F14.4°C 86% Calm Calm 1.0 mph1.6 kmh 30.11 in1019.6 mb 0.00 in0.0 mm 0.00 in0.0 mm 0.00 in0.0 mm
02:48 AM 62.2°F16.8°C 57.9°F14.4°C 86% Calm Calm 1.0 mph1.6 kmh 30.11 in1019.6 mb 0.00 in0.0 mm 0.00 in0.0 mm 0.00 in0.0 mm
02:51 AM 62.2°F16.8°C 57.9°F14.4°C 86% Calm Calm 1.0 mph1.6 kmh 30.11 in1019.6 mb 0.00 in0.0 mm 0.00 in0.0 mm 0.00 in0.0 mm
02:54 AM 62.2°F16.8°C 57.9°F14.4°C 86% Calm Calm 1.0 mph1.6 kmh 30.12 in1020.0 mb 0.00 in0.0 mm 0.00 in0.0 mm 0.00 in0.0 mm
02:57 AM 62.2°F16.8°C 57.9°F14.4°C 86% Calm Calm 1.0 mph1.6 kmh 30.11 in1019.6 mb 0.00 in0.0 mm 0.00 in0.0 mm 0.00 in0.0 mm
03:00 AM 62.2°F16.8°C 57.9°F14.4°C 86% Calm Calm 1.0 mph1.6 kmh 30.11 in1019.6 mb 0.00 in0.0 mm 0.00 in0.0 mm 0.00 in0.0 mm
03:03 AM 62.2°F16.8°C 57.9°F14.4°C 86% 1.0 mph SE1.6 kmh SE 3.0 mph4.8 kmh 30.11 in1019.6 mb 0.00 in0.0 mm 0.00 in0.0 mm 0.00 in0.0 mm
03:06 AM 62.2°F16.8°C 57.9°F14.4°C 86% 1.0 mph SE1.6 kmh SE 3.0 mph4.8 kmh 30.11 in1019.6 mb 0.00 in0.0 mm 0.00 in0.0 mm 0.00 in0.0 mm
03:09 AM 62.2°F16.8°C 57.9°F14.4°C 86% 2.0 mph SE3.2 kmh SE 3.0 mph4.8 kmh 30.11 in1019.6 mb 0.00 in0.0 mm 0.00 in0.0 mm 0.00 in0.0 mm
03:12 AM 62.2°F16.8°C 57.9°F14.4°C 86% 2.0 mph SE3.2 kmh SE 3.0 mph4.8 kmh 30.11 in1019.6 mb 0.00 in0.0 mm 0.00 in0.0 mm 0.00 in0.0 mm
03:15 AM 62.2°F16.8°C 57.9°F14.4°C 86% 2.0 mph SE3.2 kmh SE 3.0 mph4.8 kmh 30.11 in1019.6 mb 0.00 in0.0 mm 0.00 in0.0 mm 0.00 in0.0 mm
03:18 AM 62.2°F16.8°C 57.9°F14.4°C 86% 2.0 mph SE3.2 kmh SE 4.0 mph6.4 kmh 30.11 in1019.6 mb 0.00 in0.0 mm 0.00 in0.0 mm 0.00 in0.0 mm
03:21 AM 62.2°F16.8°C 57.9°F14.4°C 86% 2.0 mph SE3.2 kmh SE 4.0 mph6.4 kmh 30.11 in1019.6 mb 0.00 in0.0 mm 0.00 in0.0 mm 0.00 in0.0 mm
03:24 AM 62.2°F16.8°C 57.9°F14.4°C 86% 1.0 mph SE1.6 kmh SE 4.0 mph6.4 kmh 30.11 in1019.6 mb 0.00 in0.0 mm 0.00 in0.0 mm 0.00 in0.0 mm
03:27 AM 62.2°F16.8°C 57.9°F14.4°C 86% 1.0 mph SE1.6 kmh SE 3.0 mph4.8 kmh 30.11 in1019.6 mb 0.00 in0.0 mm 0.00 in0.0 mm 0.00 in0.0 mm
03:30 AM 62.2°F16.8°C 57.9°F14.4°C 86% 1.0 mph SE1.6 kmh SE 3.0 mph4.8 kmh 30.11 in1019.6 mb 0.00 in0.0 mm 0.00 in0.0 mm 0.00 in0.0 mm
03:33 AM 62.2°F16.8°C 57.9°F14.4°C 86% 2.0 mph SE3.2 kmh SE 3.0 mph4.8 kmh 30.11 in1019.6 mb 0.00 in0.0 mm 0.00 in0.0 mm 0.00 in0.0 mm
03:36 AM 62.2°F16.8°C 57.9°F14.4°C 86% 2.0 mph SE3.2 kmh SE 3.0 mph4.8 kmh 30.11 in1019.6 mb 0.00 in0.0 mm 0.00 in0.0 mm 0.00 in0.0 mm
03:39 AM 62.2°F16.8°C 57.9°F14.4°C 86% 2.0 mph SE3.2 kmh SE 3.0 mph4.8 kmh 30.11 in1019.6 mb 0.00 in0.0 mm 0.00 in0.0 mm 0.00 in0.0 mm
03:42 AM 62.2°F16.8°C 57.9°F14.4°C 86% 2.0 mph SE3.2 kmh SE 4.0 mph6.4 kmh 30.11 in1019.6 mb 0.00 in0.0 mm 0.00 in0.0 mm 0.00 in0.0 mm
03:45 AM 62.2°F16.8°C 57.9°F14.4°C 86% 2.0 mph SE3.2 kmh SE 4.0 mph6.4 kmh 30.11 in1019.6 mb 0.00 in0.0 mm 0.00 in0.0 mm 0.00 in0.0 mm
03:48 AM 62.2°F16.8°C 57.9°F14.4°C 86% 2.0 mph SE3.2 kmh SE 4.0 mph6.4 kmh 30.11 in1019.6 mb 0.00 in0.0 mm 0.00 in0.0 mm 0.00 in0.0 mm
03:51 AM 62.2°F16.8°C 57.9°F14.4°C 86% 1.0 mph ESE1.6 kmh ESE 3.0 mph4.8 kmh 30.11 in1019.6 mb 0.00 in0.0 mm 0.00 in0.0 mm 0.00 in0.0 mm
03:54 AM 62.2°F16.8°C 57.9°F14.4°C 86% 1.0 mph ESE1.6 kmh ESE 3.0 mph4.8 kmh 30.11 in1019.6 mb 0.00 in0.0 mm 0.00 in0.0 mm 0.00 in0.0 mm
03:57 AM 62.2°F16.8°C 57.9°F14.4°C 86% 1.0 mph ESE1.6 kmh ESE 3.0 mph4.8 kmh 30.11 in1019.6 mb 0.00 in0.0 mm 0.00 in0.0 mm 0.00 in0.0 mm
04:00 AM 62.2°F16.8°C 57.9°F14.4°C 86% 1.0 mph ESE1.6 kmh ESE 3.0 mph4.8 kmh 30.11 in1019.6 mb 0.00 in0.0 mm 0.00 in0.0 mm 0.00 in0.0 mm
04:03 AM 62.2°F16.8°C 57.9°F14.4°C 86% 2.0 mph ESE3.2 kmh ESE 3.0 mph4.8 kmh 30.11 in1019.6 mb 0.00 in0.0 mm 0.00 in0.0 mm 0.00 in0.0 mm
04:06 AM 62.2°F16.8°C 57.9°F14.4°C 86% 2.0 mph SE3.2 kmh SE 4.0 mph6.4 kmh 30.11 in1019.6 mb 0.00 in0.0 mm 0.00 in0.0 mm 0.00 in0.0 mm
04:09 AM 62.2°F16.8°C 57.9°F14.4°C 86% 2.0 mph ESE3.2 kmh ESE 4.0 mph6.4 kmh 30.11 in1019.6 mb 0.00 in0.0 mm 0.00 in0.0 mm 0.00 in0.0 mm
04:12 AM 62.2°F16.8°C 57.9°F14.4°C 86% 2.0 mph ESE3.2 kmh ESE 4.0 mph6.4 kmh 30.10 in1019.3 mb 0.00 in0.0 mm 0.00 in0.0 mm 0.00 in0.0 mm
04:15 AM 62.2°F16.8°C 57.9°F14.4°C 86% 3.0 mph ESE4.8 kmh ESE 4.0 mph6.4 kmh 30.10 in1019.3 mb 0.00 in0.0 mm 0.00 in0.0 mm 0.00 in0.0 mm
04:18 AM 62.2°F16.8°C 57.9°F14.4°C 86% 3.0 mph SE4.8 kmh SE 6.0 mph9.7 kmh 30.10 in1019.3 mb 0.00 in0.0 mm 0.00 in0.0 mm 0.00 in0.0 mm
04:21 AM 62.2°F16.8°C 57.9°F14.4°C 86% 3.0 mph SE4.8 kmh SE 6.0 mph9.7 kmh 30.10 in1019.3 mb 0.00 in0.0 mm 0.00 in0.0 mm 0.00 in0.0 mm
04:24 AM 62.2°F16.8°C 57.9°F14.4°C 86% 3.0 mph SE4.8 kmh SE 6.0 mph9.7 kmh 30.10 in1019.3 mb 0.00 in0.0 mm 0.00 in0.0 mm 0.00 in0.0 mm
04:27 AM 62.2°F16.8°C 57.9°F14.4°C 86% 3.0 mph SSE4.8 kmh SSE 6.0 mph9.7 kmh 30.10 in1019.3 mb 0.00 in0.0 mm 0.00 in0.0 mm 0.00 in0.0 mm
04:30 AM 62.2°F16.8°C 57.9°F14.4°C 86% 3.0 mph SSE4.8 kmh SSE 4.0 mph6.4 kmh 30.10 in1019.3 mb 0.00 in0.0 mm 0.00 in0.0 mm 0.00 in0.0 mm
04:33 AM 62.2°F16.8°C 57.9°F14.4°C 86% 3.0 mph SSE4.8 kmh SSE 6.0 mph9.7 kmh 30.10 in1019.3 mb 0.00 in0.0 mm 0.00 in0.0 mm 0.00 in0.0 mm
04:36 AM 62.2°F16.8°C 57.9°F14.4°C 86% 4.0 mph SSE6.4 kmh SSE 6.0 mph9.7 kmh 30.10 in1019.3 mb 0.00 in0.0 mm 0.00 in0.0 mm 0.00 in0.0 mm
04:39 AM 62.2°F16.8°C 57.9°F14.4°C 86% 4.0 mph SSE6.4 kmh SSE 6.0 mph9.7 kmh 30.10 in1019.3 mb 0.00 in0.0 mm 0.00 in0.0 mm 0.00 in0.0 mm
04:42 AM 62.2°F16.8°C 57.9°F14.4°C 86% 4.0 mph SSE6.4 kmh SSE 6.0 mph9.7 kmh 30.10 in1019.3 mb 0.00 in0.0 mm 0.00 in0.0 mm 0.00 in0.0 mm
04:45 AM 62.2°F16.8°C 57.9°F14.4°C 86% 4.0 mph SSE6.4 kmh SSE 7.0 mph11.3 kmh 30.10 in1019.3 mb 0.00 in0.0 mm 0.00 in0.0 mm 0.00 in0.0 mm
04:48 AM 62.2°F16.8°C 57.9°F14.4°C 86% 5.0 mph SSE8.0 kmh SSE 7.0 mph11.3 kmh 30.10 in1019.3 mb 0.00 in0.0 mm 0.00 in0.0 mm 0.00 in0.0 mm
04:51 AM 62.2°F16.8°C 57.9°F14.4°C 86% 5.0 mph SSE8.0 kmh SSE 7.0 mph11.3 kmh 30.10 in1019.3 mb 0.00 in0.0 mm 0.00 in0.0 mm 0.00 in0.0 mm
04:54 AM 62.2°F16.8°C 57.9°F14.4°C 86% 5.0 mph SSE8.0 kmh SSE 7.0 mph11.3 kmh 30.10 in1019.3 mb 0.00 in0.0 mm 0.00 in0.0 mm 0.00 in0.0 mm
04:57 AM 62.2°F16.8°C 57.9°F14.4°C 86% 4.0 mph SSE6.4 kmh SSE 7.0 mph11.3 kmh 30.10 in1019.3 mb 0.00 in0.0 mm 0.00 in0.0 mm 0.00 in0.0 mm
05:00 AM 62.2°F16.8°C 57.9°F14.4°C 86% 4.0 mph SSE6.4 kmh SSE 7.0 mph11.3 kmh 30.10 in1019.3 mb 0.00 in0.0 mm 0.00 in0.0 mm 0.00 in0.0 mm
05:03 AM 62.2°F16.8°C 57.9°F14.4°C 86% 4.0 mph SSE6.4 kmh SSE 7.0 mph11.3 kmh 30.10 in1019.3 mb 0.00 in0.0 mm 0.00 in0.0 mm 0.00 in0.0 mm
05:06 AM 62.2°F16.8°C 57.9°F14.4°C 86% 5.0 mph SSE8.0 kmh SSE 8.0 mph12.9 kmh 30.10 in1019.3 mb 0.00 in0.0 mm 0.00 in0.0 mm 0.00 in0.0 mm
05:09 AM 62.2°F16.8°C 57.9°F14.4°C 86% 5.0 mph SSE8.0 kmh SSE 8.0 mph12.9 kmh 30.10 in1019.3 mb 0.00 in0.0 mm 0.00 in0.0 mm 0.00 in0.0 mm
05:12 AM 62.2°F16.8°C 57.9°F14.4°C 86% 5.0 mph SSE8.0 kmh SSE 8.0 mph12.9 kmh 30.10 in1019.3 mb 0.00 in0.0 mm 0.00 in0.0 mm 0.00 in0.0 mm
05:15 AM 62.2°F16.8°C 57.9°F14.4°C 86% 5.0 mph SSE8.0 kmh SSE 8.0 mph12.9 kmh 30.10 in1019.3 mb 0.00 in0.0 mm 0.00 in0.0 mm 0.00 in0.0 mm
05:18 AM 62.2°F16.8°C 57.9°F14.4°C 86% 4.0 mph SSE6.4 kmh SSE 8.0 mph12.9 kmh 30.10 in1019.3 mb 0.00 in0.0 mm 0.00 in0.0 mm 0.00 in0.0 mm
05:21 AM 62.2°F16.8°C 57.9°F14.4°C 86% 4.0 mph SSE6.4 kmh SSE 8.0 mph12.9 kmh 30.10 in1019.3 mb 0.00 in0.0 mm 0.00 in0.0 mm 0.00 in0.0 mm
05:24 AM 62.2°F16.8°C 57.9°F14.4°C 86% 4.0 mph SSE6.4 kmh SSE 7.0 mph11.3 kmh 30.10 in1019.3 mb 0.00 in0.0 mm 0.00 in0.0 mm 0.00 in0.0 mm
05:27 AM 62.2°F16.8°C 57.9°F14.4°C 86% 4.0 mph SSE6.4 kmh SSE 8.0 mph12.9 kmh 30.10 in1019.3 mb 0.00 in0.0 mm 0.00 in0.0 mm 0.00 in0.0 mm
05:30 AM 62.2°F16.8°C 57.9°F14.4°C 86% 5.0 mph SSE8.0 kmh SSE 8.0 mph12.9 kmh 30.10 in1019.3 mb 0.00 in0.0 mm 0.00 in0.0 mm 0.00 in0.0 mm
05:33 AM 62.2°F16.8°C 57.9°F14.4°C 86% 5.0 mph SSE8.0 kmh SSE 8.0 mph12.9 kmh 30.10 in1019.3 mb 0.00 in0.0 mm 0.00 in0.0 mm 0.00 in0.0 mm
05:36 AM 62.2°F16.8°C 57.9°F14.4°C 86% 5.0 mph SSE8.0 kmh SSE 8.0 mph12.9 kmh 30.10 in1019.3 mb 0.00 in0.0 mm 0.00 in0.0 mm 0.00 in0.0 mm
05:39 AM 62.2°F16.8°C 57.9°F14.4°C 86% 5.0 mph SSE8.0 kmh SSE 8.0 mph12.9 kmh 30.10 in1019.3 mb 0.00 in0.0 mm 0.00 in0.0 mm 0.00 in0.0 mm
05:42 AM 62.2°F16.8°C 57.9°F14.4°C 86% 5.0 mph SSE8.0 kmh SSE 8.0 mph12.9 kmh 30.10 in1019.3 mb 0.00 in0.0 mm 0.00 in0.0 mm 0.00 in0.0 mm
05:45 AM 62.2°F16.8°C 57.9°F14.4°C 86% 5.0 mph SSE8.0 kmh SSE 8.0 mph12.9 kmh 30.10 in1019.3 mb 0.00 in0.0 mm 0.00 in0.0 mm 0.00 in0.0 mm
05:48 AM 62.2°F16.8°C 57.9°F14.4°C 86% 5.0 mph SSE8.0 kmh SSE 8.0 mph12.9 kmh 30.10 in1019.3 mb 0.00 in0.0 mm 0.00 in0.0 mm 0.00 in0.0 mm
05:51 AM 62.2°F16.8°C 57.9°F14.4°C 86% 5.0 mph SSE8.0 kmh SSE 9.0 mph14.5 kmh 30.10 in1019.3 mb 0.00 in0.0 mm 0.00 in0.0 mm 0.00 in0.0 mm
05:54 AM 62.2°F16.8°C 57.9°F14.4°C 86% 5.0 mph SSE8.0 kmh SSE 9.0 mph14.5 kmh 30.10 in1019.3 mb 0.00 in0.0 mm 0.00 in0.0 mm 0.00 in0.0 mm
05:57 AM 62.2°F16.8°C 57.9°F14.4°C 86% 6.0 mph SSE9.7 kmh SSE 9.0 mph14.5 kmh 30.10 in1019.3 mb 0.00 in0.0 mm 0.00 in0.0 mm 0.00 in0.0 mm
06:00 AM 62.2°F16.8°C 57.9°F14.4°C 86% 6.0 mph SSE9.7 kmh SSE 9.0 mph14.5 kmh 30.10 in1019.3 mb 0.00 in0.0 mm 0.00 in0.0 mm 0.00 in0.0 mm
06:03 AM 62.2°F16.8°C 57.9°F14.4°C 86% 6.0 mph SSE9.7 kmh SSE 9.0 mph14.5 kmh 30.10 in1019.3 mb 0.00 in0.0 mm 0.00 in0.0 mm 0.00 in0.0 mm
06:06 AM 62.2°F16.8°C 57.9°F14.4°C 86% 6.0 mph SSE9.7 kmh SSE 9.0 mph14.5 kmh 30.10 in1019.3 mb 0.00 in0.0 mm 0.00 in0.0 mm 0.00 in0.0 mm
06:09 AM 62.2°F16.8°C 57.9°F14.4°C 86% 6.0 mph SSE9.7 kmh SSE 9.0 mph14.5 kmh 30.10 in1019.3 mb 0.00 in0.0 mm 0.00 in0.0 mm 0.00 in0.0 mm
06:12 AM 62.2°F16.8°C 57.9°F14.4°C 86% 5.0 mph SSE8.0 kmh SSE 8.0 mph12.9 kmh 30.10 in1019.3 mb 0.00 in0.0 mm 0.00 in0.0 mm 0.00 in0.0 mm
06:15 AM 62.2°F16.8°C 57.9°F14.4°C 86% 5.0 mph SSE8.0 kmh SSE 9.0 mph14.5 kmh 30.10 in1019.3 mb 0.00 in0.0 mm 0.00 in0.0 mm 0.00 in0.0 mm
06:18 AM 62.2°F16.8°C 57.9°F14.4°C 86% 5.0 mph SSE8.0 kmh SSE 9.0 mph14.5 kmh 30.10 in1019.3 mb 0.00 in0.0 mm 0.00 in0.0 mm 0.00 in0.0 mm
06:21 AM 62.2°F16.8°C 57.9°F14.4°C 86% 5.0 mph SSE8.0 kmh SSE 9.0 mph14.5 kmh 30.10 in1019.3 mb 0.00 in0.0 mm 0.00 in0.0 mm 0.00 in0.0 mm
06:24 AM 62.2°F16.8°C 57.9°F14.4°C 86% 5.0 mph SSE8.0 kmh SSE 9.0 mph14.5 kmh 30.10 in1019.3 mb 0.00 in0.0 mm 0.00 in0.0 mm 0.00 in0.0 mm
06:27 AM 62.2°F16.8°C 57.9°F14.4°C 86% 5.0 mph SSE8.0 kmh SSE 7.0 mph11.3 kmh 30.11 in1019.6 mb 0.00 in0.0 mm 0.00 in0.0 mm 0.00 in0.0 mm
06:30 AM 62.2°F16.8°C 57.9°F14.4°C 86% 4.0 mph SSE6.4 kmh SSE 7.0 mph11.3 kmh 30.11 in1019.6 mb 0.00 in0.0 mm 0.00 in0.0 mm 0.00 in0.0 mm
06:33 AM 62.2°F16.8°C 57.9°F14.4°C 86% 4.0 mph SSE6.4 kmh SSE 7.0 mph11.3 kmh 30.11 in1019.6 mb 0.00 in0.0 mm 0.00 in0.0 mm 0.00 in0.0 mm
06:36 AM 62.2°F16.8°C 57.9°F14.4°C 86% 4.0 mph SSE6.4 kmh SSE 7.0 mph11.3 kmh 30.11 in1019.6 mb 0.00 in0.0 mm 0.00 in0.0 mm 0.00 in0.0 mm
06:39 AM 62.2°F16.8°C 57.9°F14.4°C 86% 4.0 mph SSE6.4 kmh SSE 7.0 mph11.3 kmh 30.10 in1019.3 mb 0.00 in0.0 mm 0.00 in0.0 mm 0.00 in0.0 mm
06:42 AM 62.2°F16.8°C 57.9°F14.4°C 86% 5.0 mph SSE8.0 kmh SSE 7.0 mph11.3 kmh 30.10 in1019.3 mb 0.00 in0.0 mm 0.00 in0.0 mm 0.00 in0.0 mm
06:45 AM 62.2°F16.8°C 57.9°F14.4°C 86% 5.0 mph SSE8.0 kmh SSE 7.0 mph11.3 kmh 30.10 in1019.3 mb 0.00 in0.0 mm 0.00 in0.0 mm 0.00 in0.0 mm
06:48 AM 62.2°F16.8°C 57.9°F14.4°C 86% 5.0 mph SSE8.0 kmh SSE 8.0 mph12.9 kmh 30.10 in1019.3 mb 0.00 in0.0 mm 0.00 in0.0 mm 0.00 in0.0 mm
06:51 AM 62.2°F16.8°C 57.9°F14.4°C 86% 6.0 mph SSE9.7 kmh SSE 8.0 mph12.9 kmh 30.10 in1019.3 mb 0.00 in0.0 mm 0.00 in0.0 mm 0.00 in0.0 mm
06:54 AM 62.2°F16.8°C 57.9°F14.4°C 86% 6.0 mph SSE9.7 kmh SSE 8.0 mph12.9 kmh 30.10 in1019.3 mb 0.00 in0.0 mm 0.00 in0.0 mm 0.00 in0.0 mm
06:57 AM 62.2°F16.8°C 57.9°F14.4°C 86% 6.0 mph SSE9.7 kmh SSE 8.0 mph12.9 kmh 30.10 in1019.3 mb 0.00 in0.0 mm 0.00 in0.0 mm 0.00 in0.0 mm
07:00 AM 62.2°F16.8°C 57.9°F14.4°C 86% 5.0 mph SSE8.0 kmh SSE 8.0 mph12.9 kmh 30.10 in1019.3 mb 0.00 in0.0 mm 0.00 in0.0 mm 0.00 in0.0 mm
07:03 AM 62.2°F16.8°C 57.9°F14.4°C 86% 5.0 mph SSE8.0 kmh SSE 8.0 mph12.9 kmh 30.10 in1019.3 mb 0.00 in0.0 mm 0.00 in0.0 mm 0.00 in0.0 mm
07:06 AM 62.2°F16.8°C 57.9°F14.4°C 86% 4.0 mph S6.4 kmh S 7.0 mph11.3 kmh 30.10 in1019.3 mb 0.00 in0.0 mm 0.00 in0.0 mm 0.00 in0.0 mm
07:09 AM 62.2°F16.8°C 57.9°F14.4°C 86% 4.0 mph S6.4 kmh S 7.0 mph11.3 kmh 30.10 in1019.3 mb 0.00 in0.0 mm 0.00 in0.0 mm 0.00 in0.0 mm
07:12 AM 62.2°F16.8°C 57.9°F14.4°C 86% 4.0 mph S6.4 kmh S 6.0 mph9.7 kmh 30.10 in1019.3 mb 0.00 in0.0 mm 0.00 in0.0 mm 0.00 in0.0 mm
07:15 AM 62.2°F16.8°C 57.9°F14.4°C 86% 3.0 mph SSE4.8 kmh SSE 6.0 mph9.7 kmh 30.10 in1019.3 mb 0.00 in0.0 mm 0.00 in0.0 mm 0.00 in0.0 mm
07:18 AM 62.2°F16.8°C 57.9°F14.4°C 86% 3.0 mph SSE4.8 kmh SSE 6.0 mph9.7 kmh 30.11 in1019.6 mb 0.00 in0.0 mm 0.00 in0.0 mm 0.00 in0.0 mm
07:21 AM 62.2°F16.8°C 57.9°F14.4°C 86% 3.0 mph SSE4.8 kmh SSE 6.0 mph9.7 kmh 30.10 in1019.3 mb 0.00 in0.0 mm 0.00 in0.0 mm 0.00 in0.0 mm
07:24 AM 62.2°F16.8°C 57.9°F14.4°C 86% 3.0 mph SSE4.8 kmh SSE 6.0 mph9.7 kmh 30.10 in1019.3 mb 0.00 in0.0 mm 0.00 in0.0 mm 0.00 in0.0 mm
07:27 AM 62.2°F16.8°C 57.9°F14.4°C 86% 3.0 mph SSE4.8 kmh SSE 6.0 mph9.7 kmh 30.11 in1019.6 mb 0.00 in0.0 mm 0.00 in0.0 mm 0.00 in0.0 mm
07:30 AM 62.2°F16.8°C 57.9°F14.4°C 86% 3.0 mph SE4.8 kmh SE 5.0 mph8.0 kmh 30.10 in1019.3 mb 0.00 in0.0 mm 0.00 in0.0 mm 0.00 in0.0 mm
07:33 AM 62.2°F16.8°C 57.9°F14.4°C 86% 3.0 mph SSE4.8 kmh SSE 6.0 mph9.7 kmh 30.10 in1019.3 mb 0.00 in0.0 mm 0.00 in0.0 mm 0.00 in0.0 mm
07:36 AM 62.2°F16.8°C 57.9°F14.4°C 86% 3.0 mph SSE4.8 kmh SSE 6.0 mph9.7 kmh 30.10 in1019.3 mb 0.00 in0.0 mm 0.00 in0.0 mm 0.00 in0.0 mm
07:39 AM 62.2°F16.8°C 57.9°F14.4°C 86% 3.0 mph SSE4.8 kmh SSE 6.0 mph9.7 kmh 30.10 in1019.3 mb 0.00 in0.0 mm 0.00 in0.0 mm 0.00 in0.0 mm
07:42 AM 62.2°F16.8°C 57.9°F14.4°C 86% 3.0 mph SSE4.8 kmh SSE 6.0 mph9.7 kmh 30.10 in1019.3 mb 0.00 in0.0 mm 0.00 in0.0 mm 0.00 in0.0 mm
07:45 AM 62.2°F16.8°C 57.9°F14.4°C 86% 3.0 mph S4.8 kmh S 6.0 mph9.7 kmh 30.10 in1019.3 mb 0.00 in0.0 mm 0.00 in0.0 mm 0.00 in0.0 mm
07:48 AM 62.2°F16.8°C 57.9°F14.4°C 86% 4.0 mph S6.4 kmh S 6.0 mph9.7 kmh 30.10 in1019.3 mb 0.00 in0.0 mm 0.00 in0.0 mm 0.00 in0.0 mm
07:51 AM 62.2°F16.8°C 57.9°F14.4°C 86% 4.0 mph SSW6.4 kmh SSW 8.0 mph12.9 kmh 30.10 in1019.3 mb 0.00 in0.0 mm 0.00 in0.0 mm 0.00 in0.0 mm
07:54 AM 62.2°F16.8°C 57.9°F14.4°C 86% 4.0 mph SW6.4 kmh SW 8.0 mph12.9 kmh 30.10 in1019.3 mb 0.00 in0.0 mm 0.00 in0.0 mm 0.00 in0.0 mm
07:57 AM 62.2°F16.8°C 57.9°F14.4°C 86% 4.0 mph SW6.4 kmh SW 9.0 mph14.5 kmh 30.10 in1019.3 mb 0.00 in0.0 mm 0.00 in0.0 mm 0.00 in0.0 mm
08:00 AM 62.2°F16.8°C 57.9°F14.4°C 86% 3.0 mph SW4.8 kmh SW 9.0 mph14.5 kmh 30.10 in1019.3 mb 0.00 in0.0 mm 0.00 in0.0 mm 0.00 in0.0 mm
08:03 AM 62.2°F16.8°C 57.9°F14.4°C 86% 3.0 mph SW4.8 kmh SW 9.0 mph14.5 kmh 30.10 in1019.3 mb 0.00 in0.0 mm 0.00 in0.0 mm 0.00 in0.0 mm
08:06 AM 62.2°F16.8°C 57.9°F14.4°C 86% 4.0 mph S6.4 kmh S 8.0 mph12.9 kmh 30.10 in1019.3 mb 0.00 in0.0 mm 0.00 in0.0 mm 0.00 in0.0 mm
08:09 AM 62.2°F16.8°C 57.9°F14.4°C 86% 4.0 mph S6.4 kmh S 9.0 mph14.5 kmh 30.11 in1019.6 mb 0.00 in0.0 mm 0.00 in0.0 mm 0.00 in0.0 mm
08:12 AM 62.2°F16.8°C 57.9°F14.4°C 86% 5.0 mph S8.0 kmh S 9.0 mph14.5 kmh 30.11 in1019.6 mb 0.00 in0.0 mm 0.00 in0.0 mm 0.00 in0.0 mm
08:15 AM 62.2°F16.8°C 57.9°F14.4°C 86% 5.0 mph S8.0 kmh S 9.0 mph14.5 kmh 30.11 in1019.6 mb 0.00 in0.0 mm 0.00 in0.0 mm 0.00 in0.0 mm
08:18 AM 62.2°F16.8°C 57.9°F14.4°C 86% 5.0 mph S8.0 kmh S 8.0 mph12.9 kmh 30.10 in1019.3 mb 0.00 in0.0 mm 0.00 in0.0 mm 0.00 in0.0 mm
08:21 AM 62.2°F16.8°C 57.9°F14.4°C 86% 5.0 mph S8.0 kmh S 8.0 mph12.9 kmh 30.11 in1019.6 mb 0.00 in0.0 mm 0.00 in0.0 mm 0.00 in0.0 mm
08:24 AM 62.2°F16.8°C 57.9°F14.4°C 86% 4.0 mph SSW6.4 kmh SSW 11.0 mph17.7 kmh 30.11 in1019.6 mb 0.00 in0.0 mm 0.00 in0.0 mm 0.00 in0.0 mm
08:27 AM 62.2°F16.8°C 57.9°F14.4°C 86% 4.0 mph SW6.4 kmh SW 11.0 mph17.7 kmh 30.11 in1019.6 mb 0.00 in0.0 mm 0.00 in0.0 mm 0.00 in0.0 mm
08:30 AM 62.2°F16.8°C 57.9°F14.4°C 86% 5.0 mph SW8.0 kmh SW 11.0 mph17.7 kmh 30.11 in1019.6 mb 0.00 in0.0 mm 0.00 in0.0 mm 0.00 in0.0 mm
08:33 AM 62.2°F16.8°C 57.9°F14.4°C 86% 5.0 mph SW8.0 kmh SW 12.0 mph19.3 kmh 30.11 in1019.6 mb 0.00 in0.0 mm 0.00 in0.0 mm 0.00 in0.0 mm
08:36 AM 62.2°F16.8°C 57.9°F14.4°C 86% 6.0 mph SW9.7 kmh SW 17.0 mph27.4 kmh 30.11 in1019.6 mb 0.00 in0.0 mm 0.00 in0.0 mm 0.00 in0.0 mm
08:39 AM 62.2°F16.8°C 57.9°F14.4°C 86% 6.0 mph SW9.7 kmh SW 17.0 mph27.4 kmh 30.11 in1019.6 mb 0.00 in0.0 mm 0.00 in0.0 mm 0.00 in0.0 mm
08:42 AM 62.2°F16.8°C 57.9°F14.4°C 86% 6.0 mph SW9.7 kmh SW 17.0 mph27.4 kmh 30.11 in1019.6 mb 0.00 in0.0 mm 0.00 in0.0 mm 0.00 in0.0 mm
08:45 AM 62.2°F16.8°C 57.9°F14.4°C 86% 6.0 mph SW9.7 kmh SW 14.0 mph22.5 kmh 30.11 in1019.6 mb 0.00 in0.0 mm 0.00 in0.0 mm 0.00 in0.0 mm
08:48 AM 62.2°F16.8°C 57.9°F14.4°C 86% 6.0 mph SW9.7 kmh SW 14.0 mph22.5 kmh 30.11 in1019.6 mb 0.00 in0.0 mm 0.00 in0.0 mm 0.00 in0.0 mm
08:51 AM 62.2°F16.8°C 57.9°F14.4°C 86% 5.0 mph SW8.0 kmh SW 11.0 mph17.7 kmh 30.11 in1019.6 mb 0.00 in0.0 mm 0.00 in0.0 mm 0.00 in0.0 mm
08:54 AM 62.2°F16.8°C 57.9°F14.4°C 86% 5.0 mph SW8.0 kmh SW 11.0 mph17.7 kmh 30.11 in1019.6 mb 0.00 in0.0 mm 0.00 in0.0 mm 0.00 in0.0 mm
08:57 AM 62.2°F16.8°C 57.9°F14.4°C 86% 4.0 mph SW6.4 kmh SW 10.0 mph16.1 kmh 30.11 in1019.6 mb 0.00 in0.0 mm 0.00 in0.0 mm 0.00 in0.0 mm
09:00 AM 62.2°F16.8°C 57.9°F14.4°C 86% 4.0 mph SW6.4 kmh SW 9.0 mph14.5 kmh 30.11 in1019.6 mb 0.00 in0.0 mm 0.00 in0.0 mm 0.00 in0.0 mm
09:03 AM 62.2°F16.8°C 57.9°F14.4°C 86% 4.0 mph SW6.4 kmh SW 10.0 mph16.1 kmh 30.11 in1019.6 mb 0.00 in0.0 mm 0.00 in0.0 mm 0.00 in0.0 mm
09:06 AM 62.2°F16.8°C 57.9°F14.4°C 86% 4.0 mph SW6.4 kmh SW 10.0 mph16.1 kmh 30.11 in1019.6 mb 0.00 in0.0 mm 0.00 in0.0 mm 0.00 in0.0 mm
09:09 AM 62.2°F16.8°C 57.9°F14.4°C 86% 5.0 mph SW8.0 kmh SW 14.0 mph22.5 kmh 30.11 in1019.6 mb 0.00 in0.0 mm 0.00 in0.0 mm 0.00 in0.0 mm
09:12 AM 62.2°F16.8°C 57.9°F14.4°C 86% 6.0 mph SW9.7 kmh SW 14.0 mph22.5 kmh 30.10 in1019.3 mb 0.00 in0.0 mm 0.00 in0.0 mm 0.00 in0.0 mm
09:15 AM 62.2°F16.8°C 57.9°F14.4°C 86% 6.0 mph SW9.7 kmh SW 14.0 mph22.5 kmh 30.11 in1019.6 mb 0.00 in0.0 mm 0.00 in0.0 mm 0.00 in0.0 mm
09:18 AM 62.2°F16.8°C 57.9°F14.4°C 86% 6.0 mph SW9.7 kmh SW 14.0 mph22.5 kmh 30.10 in1019.3 mb 0.00 in0.0 mm 0.00 in0.0 mm 0.00 in0.0 mm
09:21 AM 62.2°F16.8°C 57.9°F14.4°C 86% 6.0 mph SW9.7 kmh SW 16.0 mph25.7 kmh 30.10 in1019.3 mb 0.00 in0.0 mm 0.00 in0.0 mm 0.00 in0.0 mm
09:24 AM 62.2°F16.8°C 57.9°F14.4°C 86% 6.0 mph SW9.7 kmh SW 16.0 mph25.7 kmh 30.10 in1019.3 mb 0.00 in0.0 mm 0.00 in0.0 mm 0.00 in0.0 mm
09:27 AM 62.2°F16.8°C 57.9°F14.4°C 86% 6.0 mph SW9.7 kmh SW 16.0 mph25.7 kmh 30.10 in1019.3 mb 0.00 in0.0 mm 0.00 in0.0 mm 0.00 in0.0 mm
09:30 AM 62.2°F16.8°C 57.9°F14.4°C 86% 6.0 mph SW9.7 kmh SW 16.0 mph25.7 kmh 30.10 in1019.3 mb 0.00 in0.0 mm 0.00 in0.0 mm 0.00 in0.0 mm
09:33 AM 62.2°F16.8°C 57.9°F14.4°C 86% 6.0 mph SW9.7 kmh SW 16.0 mph25.7 kmh 30.10 in1019.3 mb 0.00 in0.0 mm 0.00 in0.0 mm 0.00 in0.0 mm
09:36 AM 62.2°F16.8°C 57.9°F14.4°C 86% 6.0 mph SW9.7 kmh SW 14.0 mph22.5 kmh 30.10 in1019.3 mb 0.00 in0.0 mm 0.00 in0.0 mm 0.00 in0.0 mm
09:39 AM 62.2°F16.8°C 57.9°F14.4°C 86% 8.0 mph SW12.9 kmh SW 15.0 mph24.1 kmh 30.10 in1019.3 mb 0.00 in0.0 mm 0.00 in0.0 mm 0.00 in0.0 mm
09:42 AM 62.2°F16.8°C 57.9°F14.4°C 86% 7.0 mph SW11.3 kmh SW 15.0 mph24.1 kmh 30.10 in1019.3 mb 0.00 in0.0 mm 0.00 in0.0 mm 0.00 in0.0 mm
09:45 AM 62.2°F16.8°C 57.9°F14.4°C 86% 7.0 mph SW11.3 kmh SW 15.0 mph24.1 kmh 30.10 in1019.3 mb 0.00 in0.0 mm 0.00 in0.0 mm 0.00 in0.0 mm
09:48 AM 62.2°F16.8°C 57.9°F14.4°C 86% 6.0 mph SW9.7 kmh SW 14.0 mph22.5 kmh 30.10 in1019.3 mb 0.00 in0.0 mm 0.00 in0.0 mm 0.00 in0.0 mm
09:51 AM 62.2°F16.8°C 57.9°F14.4°C 86% 6.0 mph SW9.7 kmh SW 15.0 mph24.1 kmh 30.10 in1019.3 mb 0.00 in0.0 mm 0.00 in0.0 mm 0.00 in0.0 mm
09:54 AM 62.2°F16.8°C 57.9°F14.4°C 86% 7.0 mph SW11.3 kmh SW 15.0 mph24.1 kmh 30.10 in1019.3 mb 0.00 in0.0 mm 0.00 in0.0 mm 0.00 in0.0 mm
09:57 AM 62.2°F16.8°C 57.9°F14.4°C 86% 7.0 mph SW11.3 kmh SW 15.0 mph24.1 kmh 30.10 in1019.3 mb 0.00 in0.0 mm 0.00 in0.0 mm 0.00 in0.0 mm
10:00 AM 62.2°F16.8°C 57.9°F14.4°C 86% 7.0 mph SW11.3 kmh SW 15.0 mph24.1 kmh 30.10 in1019.3 mb 0.00 in0.0 mm 0.00 in0.0 mm 0.00 in0.0 mm
10:03 AM 62.2°F16.8°C 57.9°F14.4°C 86% 6.0 mph WSW9.7 kmh WSW 14.0 mph22.5 kmh 30.11 in1019.6 mb 0.00 in0.0 mm 0.00 in0.0 mm 0.00 in0.0 mm
10:06 AM 62.2°F16.8°C 57.9°F14.4°C 86% 5.0 mph WSW8.0 kmh WSW 17.0 mph27.4 kmh 30.10 in1019.3 mb 0.00 in0.0 mm 0.00 in0.0 mm 0.00 in0.0 mm
10:09 AM 62.2°F16.8°C 57.9°F14.4°C 86% 6.0 mph WSW9.7 kmh WSW 17.0 mph27.4 kmh 30.10 in1019.3 mb 0.00 in0.0 mm 0.00 in0.0 mm 0.00 in0.0 mm
10:12 AM 62.2°F16.8°C 57.9°F14.4°C 86% 5.0 mph WSW8.0 kmh WSW 17.0 mph27.4 kmh 30.10 in1019.3 mb 0.00 in0.0 mm 0.00 in0.0 mm 0.00 in0.0 mm
10:15 AM 62.2°F16.8°C 57.9°F14.4°C 86% 5.0 mph WSW8.0 kmh WSW 14.0 mph22.5 kmh 30.10 in1019.3 mb 0.00 in0.0 mm 0.00 in0.0 mm 0.00 in0.0 mm
10:18 AM 62.2°F16.8°C 57.9°F14.4°C 86% 5.0 mph WSW8.0 kmh WSW 14.0 mph22.5 kmh 30.10 in1019.3 mb 0.00 in0.0 mm 0.00 in0.0 mm 0.00 in0.0 mm
10:21 AM 62.2°F16.8°C 57.9°F14.4°C 86% 5.0 mph SW8.0 kmh SW 15.0 mph24.1 kmh 30.10 in1019.3 mb 0.00 in0.0 mm 0.00 in0.0 mm 0.00 in0.0 mm
10:24 AM 62.2°F16.8°C 57.9°F14.4°C 86% 6.0 mph SW9.7 kmh SW 15.0 mph24.1 kmh 30.10 in1019.3 mb 0.00 in0.0 mm 0.00 in0.0 mm 0.00 in0.0 mm
10:27 AM 61.9°F16.6°C 60.1°F15.6°C 94% 6.0 mph SW9.7 kmh SW 15.0 mph24.1 kmh 30.10 in1019.3 mb 0.00 in0.0 mm 0.00 in0.0 mm 0.00 in0.0 mm
10:30 AM 62.1°F16.7°C 60.3°F15.7°C 94% 7.0 mph SW11.3 kmh SW 14.0 mph22.5 kmh 30.10 in1019.3 mb 0.00 in0.0 mm 0.00 in0.0 mm 0.00 in0.0 mm
10:33 AM 62.1°F16.7°C 60.4°F15.8°C 94% 6.0 mph SW9.7 kmh SW 14.0 mph22.5 kmh 30.10 in1019.3 mb 0.00 in0.0 mm 0.00 in0.0 mm 0.00 in0.0 mm
10:36 AM 62.2°F16.8°C 60.4°F15.8°C 94% 6.0 mph SW9.7 kmh SW 13.0 mph20.9 kmh 30.10 in1019.3 mb 0.00 in0.0 mm 0.00 in0.0 mm 0.00 in0.0 mm
10:39 AM 62.2°F16.8°C 60.4°F15.8°C 94% 6.0 mph SW9.7 kmh SW 13.0 mph20.9 kmh 30.10 in1019.3 mb 0.00 in0.0 mm 0.00 in0.0 mm 0.00 in0.0 mm
10:42 AM 62.4°F16.9°C 60.6°F15.9°C 94% 6.0 mph SW9.7 kmh SW 13.0 mph20.9 kmh 30.10 in1019.3 mb 0.00 in0.0 mm 0.00 in0.0 mm 0.00 in0.0 mm
10:45 AM 62.8°F17.1°C 61.0°F16.1°C 94% 6.0 mph SW9.7 kmh SW 13.0 mph20.9 kmh 30.10 in1019.3 mb 0.00 in0.0 mm 0.00 in0.0 mm 0.00 in0.0 mm
10:48 AM 63.0°F17.2°C 61.2°F16.2°C 94% 7.0 mph SW11.3 kmh SW 13.0 mph20.9 kmh 30.10 in1019.3 mb 0.00 in0.0 mm 0.00 in0.0 mm 0.00 in0.0 mm
10:51 AM 63.1°F17.3°C 61.5°F16.4°C 94% 7.0 mph SW11.3 kmh SW 15.0 mph24.1 kmh 30.10 in1019.3 mb 0.00 in0.0 mm 0.00 in0.0 mm 0.00 in0.0 mm
10:54 AM 63.3°F17.4°C 61.2°F16.2°C 93% 7.0 mph SW11.3 kmh SW 15.0 mph24.1 kmh 30.10 in1019.3 mb 0.00 in0.0 mm 0.00 in0.0 mm 0.00 in0.0 mm
10:57 AM 63.3°F17.4°C 61.3°F16.3°C 93% 7.0 mph SW11.3 kmh SW 15.0 mph24.1 kmh 30.10 in1019.3 mb 0.00 in0.0 mm 0.00 in0.0 mm 0.00 in0.0 mm
11:00 AM 63.7°F17.6°C 61.7°F16.5°C 93% 7.0 mph SW11.3 kmh SW 14.0 mph22.5 kmh 30.11 in1019.6 mb 0.00 in0.0 mm 0.00 in0.0 mm 0.00 in0.0 mm
11:03 AM 63.9°F17.7°C 61.7°F16.5°C 93% 6.0 mph SW9.7 kmh SW 13.0 mph20.9 kmh 30.11 in1019.6 mb 0.00 in0.0 mm 0.00 in0.0 mm 0.00 in0.0 mm
11:06 AM 64.0°F17.8°C 61.9°F16.6°C 93% 6.0 mph SW9.7 kmh SW 13.0 mph20.9 kmh 30.10 in1019.3 mb 0.00 in0.0 mm 0.00 in0.0 mm 0.00 in0.0 mm
11:09 AM 64.0°F17.8°C 61.7°F16.5°C 92% 5.0 mph SW8.0 kmh SW 12.0 mph19.3 kmh 30.10 in1019.3 mb 0.00 in0.0 mm 0.00 in0.0 mm 0.00 in0.0 mm
11:12 AM 64.2°F17.9°C 61.9°F16.6°C 92% 5.0 mph SW8.0 kmh SW 12.0 mph19.3 kmh 30.10 in1019.3 mb 0.00 in0.0 mm 0.00 in0.0 mm 0.00 in0.0 mm
11:15 AM 64.4°F18.0°C 62.1°F16.7°C 92% 6.0 mph SW9.7 kmh SW 12.0 mph19.3 kmh 30.10 in1019.3 mb 0.00 in0.0 mm 0.00 in0.0 mm 0.00 in0.0 mm
11:18 AM 64.6°F18.1°C 62.2°F16.8°C 92% 6.0 mph SW9.7 kmh SW 12.0 mph19.3 kmh 30.10 in1019.3 mb 0.00 in0.0 mm 0.00 in0.0 mm 0.00 in0.0 mm
11:21 AM 64.8°F18.2°C 62.1°F16.7°C 91% 6.0 mph SW9.7 kmh SW 14.0 mph22.5 kmh 30.10 in1019.3 mb 0.00 in0.0 mm 0.00 in0.0 mm 0.00 in0.0 mm
11:24 AM 64.9°F18.3°C 62.2°F16.8°C 91% 6.0 mph SW9.7 kmh SW 14.0 mph22.5 kmh 30.10 in1019.3 mb 0.00 in0.0 mm 0.00 in0.0 mm 0.00 in0.0 mm
11:27 AM 65.5°F18.6°C 62.8°F17.1°C 91% 6.0 mph SW9.7 kmh SW 14.0 mph22.5 kmh 30.10 in1019.3 mb 0.00 in0.0 mm 0.00 in0.0 mm 0.00 in0.0 mm
11:30 AM 65.8°F18.8°C 63.1°F17.3°C 91% 6.0 mph SW9.7 kmh SW 14.0 mph22.5 kmh 30.10 in1019.3 mb 0.00 in0.0 mm 0.00 in0.0 mm 0.00 in0.0 mm
11:33 AM 66.2°F19.0°C 63.5°F17.5°C 91% 6.0 mph SW9.7 kmh SW 14.0 mph22.5 kmh 30.10 in1019.3 mb 0.00 in0.0 mm 0.00 in0.0 mm 0.00 in0.0 mm
11:36 AM 66.6°F19.2°C 63.5°F17.5°C 90% 6.0 mph SW9.7 kmh SW 14.0 mph22.5 kmh 30.10 in1019.3 mb 0.00 in0.0 mm 0.00 in0.0 mm 0.00 in0.0 mm
11:39 AM 66.9°F19.4°C 63.7°F17.6°C 89% 7.0 mph SW11.3 kmh SW 15.0 mph24.1 kmh 30.10 in1019.3 mb 0.00 in0.0 mm 0.00 in0.0 mm 0.00 in0.0 mm
11:42 AM 67.5°F19.7°C 63.7°F17.6°C 88% 7.0 mph SW11.3 kmh SW 15.0 mph24.1 kmh 30.10 in1019.3 mb 0.00 in0.0 mm 0.00 in0.0 mm 0.00 in0.0 mm
11:45 AM 67.8°F19.9°C 64.2°F17.9°C 88% 7.0 mph SW11.3 kmh SW 15.0 mph24.1 kmh 30.10 in1019.3 mb 0.00 in0.0 mm 0.00 in0.0 mm 0.00 in0.0 mm
11:48 AM 68.4°F20.2°C 64.2°F17.9°C 87% 7.0 mph SW11.3 kmh SW 15.0 mph24.1 kmh 30.10 in1019.3 mb 0.00 in0.0 mm 0.00 in0.0 mm 0.00 in0.0 mm
11:51 AM 68.5°F20.3°C 64.2°F17.9°C 86% 6.0 mph SW9.7 kmh SW 13.0 mph20.9 kmh 30.10 in1019.3 mb 0.00 in0.0 mm 0.00 in0.0 mm 0.00 in0.0 mm
11:54 AM 68.7°F20.4°C 64.0°F17.8°C 85% 7.0 mph SW11.3 kmh SW 13.0 mph20.9 kmh 30.10 in1019.3 mb 0.00 in0.0 mm 0.00 in0.0 mm 0.00 in0.0 mm
11:57 AM 68.9°F20.5°C 64.2°F17.9°C 85% 7.0 mph SW11.3 kmh SW 19.0 mph30.6 kmh 30.10 in1019.3 mb 0.00 in0.0 mm 0.00 in0.0 mm 0.00 in0.0 mm
12:00 PM 69.3°F20.7°C 64.2°F17.9°C 84% 7.0 mph SW11.3 kmh SW 19.0 mph30.6 kmh 30.10 in1019.3 mb 0.00 in0.0 mm 0.00 in0.0 mm 0.00 in0.0 mm
12:03 PM 69.1°F20.6°C 63.7°F17.6°C 83% 7.0 mph SW11.3 kmh SW 19.0 mph30.6 kmh 30.10 in1019.3 mb 0.00 in0.0 mm 0.00 in0.0 mm 0.00 in0.0 mm
12:06 PM 68.7°F20.4°C 63.5°F17.5°C 83% 7.0 mph SW11.3 kmh SW 19.0 mph30.6 kmh 30.10 in1019.3 mb 0.00 in0.0 mm 0.00 in0.0 mm 0.00 in0.0 mm
12:09 PM 68.5°F20.3°C 63.1°F17.3°C 83% 6.0 mph SW9.7 kmh SW 17.0 mph27.4 kmh 30.10 in1019.3 mb 0.00 in0.0 mm 0.00 in0.0 mm 0.00 in0.0 mm
12:12 PM 68.2°F20.1°C 62.8°F17.1°C 83% 6.0 mph SW9.7 kmh SW 14.0 mph22.5 kmh 30.10 in1019.3 mb 0.00 in0.0 mm 0.00 in0.0 mm 0.00 in0.0 mm
12:15 PM 67.8°F19.9°C 62.6°F17.0°C 83% 6.0 mph SW9.7 kmh SW 14.0 mph22.5 kmh 30.10 in1019.3 mb 0.00 in0.0 mm 0.00 in0.0 mm 0.00 in0.0 mm
12:18 PM 67.8°F19.9°C 62.4°F16.9°C 83% 6.0 mph SW9.7 kmh SW 15.0 mph24.1 kmh 30.10 in1019.3 mb 0.00 in0.0 mm 0.00 in0.0 mm 0.00 in0.0 mm
12:21 PM 67.6°F19.8°C 62.6°F17.0°C 84% 6.0 mph SW9.7 kmh SW 15.0 mph24.1 kmh 30.09 in1019.0 mb 0.00 in0.0 mm 0.00 in0.0 mm 0.00 in0.0 mm
12:24 PM 67.8°F19.9°C 62.8°F17.1°C 84% 6.0 mph SW9.7 kmh SW 15.0 mph24.1 kmh 30.09 in1019.0 mb 0.00 in0.0 mm 0.00 in0.0 mm 0.00 in0.0 mm
12:27 PM 67.8°F19.9°C 63.0°F17.2°C 84% 6.0 mph SW9.7 kmh SW 15.0 mph24.1 kmh 30.09 in1019.0 mb 0.00 in0.0 mm 0.00 in0.0 mm 0.00 in0.0 mm
12:30 PM 68.0°F20.0°C 63.3°F17.4°C 85% 5.0 mph SW8.0 kmh SW 12.0 mph19.3 kmh 30.09 in1019.0 mb 0.00 in0.0 mm 0.00 in0.0 mm 0.00 in0.0 mm
12:33 PM 68.2°F20.1°C 63.1°F17.3°C 84% 5.0 mph SW8.0 kmh SW 11.0 mph17.7 kmh 30.09 in1019.0 mb 0.00 in0.0 mm 0.00 in0.0 mm 0.00 in0.0 mm
12:36 PM 68.4°F20.2°C 63.3°F17.4°C 84% 6.0 mph SW9.7 kmh SW 12.0 mph19.3 kmh 30.09 in1019.0 mb 0.00 in0.0 mm 0.00 in0.0 mm 0.00 in0.0 mm
12:39 PM 68.5°F20.3°C 63.5°F17.5°C 84% 6.0 mph SW9.7 kmh SW 12.0 mph19.3 kmh 30.09 in1019.0 mb 0.00 in0.0 mm 0.00 in0.0 mm 0.00 in0.0 mm
12:42 PM 68.5°F20.3°C 63.5°F17.5°C 84% 6.0 mph SW9.7 kmh SW 14.0 mph22.5 kmh 30.09 in1019.0 mb 0.00 in0.0 mm 0.00 in0.0 mm 0.00 in0.0 mm
12:45 PM 68.7°F20.4°C 63.7°F17.6°C 84% 5.0 mph SW8.0 kmh SW 14.0 mph22.5 kmh 30.09 in1019.0 mb 0.00 in0.0 mm 0.00 in0.0 mm 0.00 in0.0 mm
12:48 PM 68.7°F20.4°C 63.3°F17.4°C 83% 6.0 mph SW9.7 kmh SW 18.0 mph29.0 kmh 30.09 in1019.0 mb 0.00 in0.0 mm 0.00 in0.0 mm 0.00 in0.0 mm
12:51 PM 68.5°F20.3°C 63.1°F17.3°C 83% 6.0 mph SW9.7 kmh SW 18.0 mph29.0 kmh 30.09 in1019.0 mb 0.00 in0.0 mm 0.00 in0.0 mm 0.00 in0.0 mm
12:54 PM 68.4°F20.2°C 63.0°F17.2°C 83% 6.0 mph SW9.7 kmh SW 18.0 mph29.0 kmh 30.09 in1019.0 mb 0.00 in0.0 mm 0.00 in0.0 mm 0.00 in0.0 mm
12:57 PM 68.2°F20.1°C 62.8°F17.1°C 83% 6.0 mph SW9.7 kmh SW 18.0 mph29.0 kmh 30.09 in1019.0 mb 0.00 in0.0 mm 0.00 in0.0 mm 0.00 in0.0 mm
01:00 PM 67.8°F19.9°C 62.4°F16.9°C 83% 6.0 mph SW9.7 kmh SW 13.0 mph20.9 kmh 30.09 in1019.0 mb 0.00 in0.0 mm 0.00 in0.0 mm 0.00 in0.0 mm
01:03 PM 67.6°F19.8°C 62.2°F16.8°C 83% 7.0 mph SW11.3 kmh SW 16.0 mph25.7 kmh 30.09 in1019.0 mb 0.00 in0.0 mm 0.00 in0.0 mm 0.00 in0.0 mm
01:06 PM 67.5°F19.7°C 62.4°F16.9°C 84% 7.0 mph SW11.3 kmh SW 16.0 mph25.7 kmh 30.09 in1019.0 mb 0.00 in0.0 mm 0.00 in0.0 mm 0.00 in0.0 mm
01:09 PM 67.3°F19.6°C 62.2°F16.8°C 84% 6.0 mph SW9.7 kmh SW 16.0 mph25.7 kmh 30.09 in1019.0 mb 0.00 in0.0 mm 0.00 in0.0 mm 0.00 in0.0 mm
01:12 PM 67.3°F19.6°C 62.2°F16.8°C 84% 5.0 mph SW8.0 kmh SW 14.0 mph22.5 kmh 30.09 in1019.0 mb 0.00 in0.0 mm 0.00 in0.0 mm 0.00 in0.0 mm
01:15 PM 66.9°F19.4°C 62.1°F16.7°C 84% 6.0 mph SW9.7 kmh SW 14.0 mph22.5 kmh 30.09 in1019.0 mb 0.00 in0.0 mm 0.00 in0.0 mm 0.00 in0.0 mm
01:18 PM 66.7°F19.3°C 61.9°F16.6°C 84% 7.0 mph SW11.3 kmh SW 15.0 mph24.1 kmh 30.09 in1019.0 mb 0.00 in0.0 mm 0.00 in0.0 mm 0.00 in0.0 mm
01:21 PM 66.6°F19.2°C 61.9°F16.6°C 85% 7.0 mph SW11.3 kmh SW 15.0 mph24.1 kmh 30.09 in1019.0 mb 0.00 in0.0 mm 0.00 in0.0 mm 0.00 in0.0 mm
01:24 PM 66.6°F19.2°C 61.9°F16.6°C 85% 8.0 mph SW12.9 kmh SW 15.0 mph24.1 kmh 30.09 in1019.0 mb 0.00 in0.0 mm 0.00 in0.0 mm 0.00 in0.0 mm
01:27 PM 66.6°F19.2°C 61.9°F16.6°C 85% 7.0 mph SW11.3 kmh SW 15.0 mph24.1 kmh 30.09 in1019.0 mb 0.00 in0.0 mm 0.00 in0.0 mm 0.00 in0.0 mm
01:30 PM 66.9°F19.4°C 62.6°F17.0°C 86% 8.0 mph SW12.9 kmh SW 15.0 mph24.1 kmh 30.09 in1019.0 mb 0.00 in0.0 mm 0.00 in0.0 mm 0.00 in0.0 mm
01:33 PM 66.9°F19.4°C 62.4°F16.9°C 85% 7.0 mph SW11.3 kmh SW 19.0 mph30.6 kmh 30.09 in1019.0 mb 0.00 in0.0 mm 0.00 in0.0 mm 0.00 in0.0 mm
01:36 PM 66.9°F19.4°C 61.9°F16.6°C 84% 7.0 mph SW11.3 kmh SW 19.0 mph30.6 kmh 30.09 in1019.0 mb 0.00 in0.0 mm 0.00 in0.0 mm 0.00 in0.0 mm
01:39 PM 66.9°F19.4°C 62.2°F16.8°C 85% 7.0 mph SW11.3 kmh SW 19.0 mph30.6 kmh 30.09 in1019.0 mb 0.00 in0.0 mm 0.00 in0.0 mm 0.00 in0.0 mm
01:42 PM 66.9°F19.4°C 61.9°F16.6°C 84% 7.0 mph SW11.3 kmh SW 19.0 mph30.6 kmh 30.09 in1019.0 mb 0.00 in0.0 mm 0.00 in0.0 mm 0.00 in0.0 mm
01:45 PM 66.9°F19.4°C 61.9°F16.6°C 84% 7.0 mph SW11.3 kmh SW 19.0 mph30.6 kmh 30.09 in1019.0 mb 0.00 in0.0 mm 0.00 in0.0 mm 0.00 in0.0 mm
01:48 PM 67.1°F19.5°C 62.4°F16.9°C 85% 8.0 mph SW12.9 kmh SW 19.0 mph30.6 kmh 30.09 in1019.0 mb 0.00 in0.0 mm 0.00 in0.0 mm 0.00 in0.0 mm
01:51 PM 67.5°F19.7°C 62.8°F17.1°C 85% 7.0 mph SW11.3 kmh SW 16.0 mph25.7 kmh 30.09 in1019.0 mb 0.00 in0.0 mm 0.00 in0.0 mm 0.00 in0.0 mm
01:54 PM 67.8°F19.9°C 63.0°F17.2°C 84% 7.0 mph SW11.3 kmh SW 16.0 mph25.7 kmh 30.09 in1019.0 mb 0.00 in0.0 mm 0.00 in0.0 mm 0.00 in0.0 mm
01:57 PM 68.2°F20.1°C 62.8°F17.1°C 83% 6.0 mph SW9.7 kmh SW 14.0 mph22.5 kmh 30.09 in1019.0 mb 0.00 in0.0 mm 0.00 in0.0 mm 0.00 in0.0 mm
02:00 PM 68.4°F20.2°C 62.6°F17.0°C 82% 7.0 mph SW11.3 kmh SW 16.0 mph25.7 kmh 30.08 in1018.6 mb 0.00 in0.0 mm 0.00 in0.0 mm 0.00 in0.0 mm
02:03 PM 68.5°F20.3°C 63.1°F17.3°C 83% 8.0 mph SW12.9 kmh SW 20.0 mph32.2 kmh 30.09 in1019.0 mb 0.00 in0.0 mm 0.00 in0.0 mm 0.00 in0.0 mm
02:06 PM 68.7°F20.4°C 63.0°F17.2°C 82% 8.0 mph SW12.9 kmh SW 20.0 mph32.2 kmh 30.09 in1019.0 mb 0.00 in0.0 mm 0.00 in0.0 mm 0.00 in0.0 mm
02:09 PM 69.1°F20.6°C 63.3°F17.4°C 82% 8.0 mph SW12.9 kmh SW 20.0 mph32.2 kmh 30.08 in1018.6 mb 0.00 in0.0 mm 0.00 in0.0 mm 0.00 in0.0 mm
02:12 PM 69.3°F20.7°C 63.1°F17.3°C 81% 8.0 mph SW12.9 kmh SW 15.0 mph24.1 kmh 30.09 in1019.0 mb 0.00 in0.0 mm 0.00 in0.0 mm 0.00 in0.0 mm
02:15 PM 69.3°F20.7°C 62.8°F17.1°C 80% 8.0 mph SW12.9 kmh SW 21.0 mph33.8 kmh 30.09 in1019.0 mb 0.00 in0.0 mm 0.00 in0.0 mm 0.00 in0.0 mm
02:18 PM 69.3°F20.7°C 63.1°F17.3°C 81% 9.0 mph SW14.5 kmh SW 21.0 mph33.8 kmh 30.08 in1018.6 mb 0.00 in0.0 mm 0.00 in0.0 mm 0.00 in0.0 mm
02:21 PM 69.6°F20.9°C 63.7°F17.6°C 81% 9.0 mph SW14.5 kmh SW 21.0 mph33.8 kmh 30.08 in1018.6 mb 0.00 in0.0 mm 0.00 in0.0 mm 0.00 in0.0 mm
02:24 PM 70.2°F21.2°C 63.7°F17.6°C 80% 9.0 mph SW14.5 kmh SW 23.0 mph37.0 kmh 30.08 in1018.6 mb 0.00 in0.0 mm 0.00 in0.0 mm 0.00 in0.0 mm
02:27 PM 70.2°F21.2°C 63.3°F17.4°C 79% 8.0 mph SW12.9 kmh SW 23.0 mph37.0 kmh 30.08 in1018.6 mb 0.00 in0.0 mm 0.00 in0.0 mm 0.00 in0.0 mm
02:30 PM 70.2°F21.2°C 63.3°F17.4°C 79% 8.0 mph SW12.9 kmh SW 23.0 mph37.0 kmh 30.08 in1018.6 mb 0.00 in0.0 mm 0.00 in0.0 mm 0.00 in0.0 mm
02:33 PM 70.2°F21.2°C 63.3°F17.4°C 79% 8.0 mph SW12.9 kmh SW 18.0 mph29.0 kmh 30.08 in1018.6 mb 0.00 in0.0 mm 0.00 in0.0 mm 0.00 in0.0 mm
02:36 PM 70.3°F21.3°C 63.5°F17.5°C 79% 8.0 mph SW12.9 kmh SW 17.0 mph27.4 kmh 30.08 in1018.6 mb 0.00 in0.0 mm 0.00 in0.0 mm 0.00 in0.0 mm
02:39 PM 70.5°F21.4°C 63.3°F17.4°C 78% 8.0 mph SW12.9 kmh SW 17.0 mph27.4 kmh 30.08 in1018.6 mb 0.00 in0.0 mm 0.00 in0.0 mm 0.00 in0.0 mm
02:42 PM 70.3°F21.3°C 63.1°F17.3°C 78% 8.0 mph SW12.9 kmh SW 18.0 mph29.0 kmh 30.08 in1018.6 mb 0.00 in0.0 mm 0.00 in0.0 mm 0.00 in0.0 mm
02:45 PM 70.3°F21.3°C 63.1°F17.3°C 78% 7.0 mph SW11.3 kmh SW 18.0 mph29.0 kmh 30.08 in1018.6 mb 0.00 in0.0 mm 0.00 in0.0 mm 0.00 in0.0 mm
02:48 PM 70.5°F21.4°C 63.3°F17.4°C 78% 9.0 mph SW14.5 kmh SW 22.0 mph35.4 kmh 30.08 in1018.6 mb 0.00 in0.0 mm 0.00 in0.0 mm 0.00 in0.0 mm
02:51 PM 70.9°F21.6°C 63.7°F17.6°C 78% 9.0 mph SW14.5 kmh SW 22.0 mph35.4 kmh 30.08 in1018.6 mb 0.00 in0.0 mm 0.00 in0.0 mm 0.00 in0.0 mm
02:54 PM 71.2°F21.8°C 64.0°F17.8°C 78% 8.0 mph SW12.9 kmh SW 22.0 mph35.4 kmh 30.07 in1018.3 mb 0.00 in0.0 mm 0.00 in0.0 mm 0.00 in0.0 mm
02:57 PM 71.4°F21.9°C 63.9°F17.7°C 77% 8.0 mph SW12.9 kmh SW 22.0 mph35.4 kmh 30.07 in1018.3 mb 0.00 in0.0 mm 0.00 in0.0 mm 0.00 in0.0 mm
03:00 PM 71.6°F22.0°C 63.7°F17.6°C 76% 8.0 mph SW12.9 kmh SW 21.0 mph33.8 kmh 30.08 in1018.6 mb 0.00 in0.0 mm 0.00 in0.0 mm 0.00 in0.0 mm
03:03 PM 71.8°F22.1°C 63.3°F17.4°C 75% 8.0 mph SW12.9 kmh SW 21.0 mph33.8 kmh 30.08 in1018.6 mb 0.00 in0.0 mm 0.00 in0.0 mm 0.00 in0.0 mm
03:06 PM 71.4°F21.9°C 63.1°F17.3°C 75% 8.0 mph SW12.9 kmh SW 17.0 mph27.4 kmh 30.08 in1018.6 mb 0.00 in0.0 mm 0.00 in0.0 mm 0.00 in0.0 mm
03:09 PM 71.4°F21.9°C 63.5°F17.5°C 76% 8.0 mph SW12.9 kmh SW 17.0 mph27.4 kmh 30.08 in1018.6 mb 0.00 in0.0 mm 0.00 in0.0 mm 0.00 in0.0 mm
03:12 PM 71.4°F21.9°C 63.1°F17.3°C 75% 7.0 mph SW11.3 kmh SW 17.0 mph27.4 kmh 30.08 in1018.6 mb 0.00 in0.0 mm 0.00 in0.0 mm 0.00 in0.0 mm
03:15 PM 71.6°F22.0°C 63.3°F17.4°C 75% 7.0 mph SW11.3 kmh SW 16.0 mph25.7 kmh 30.08 in1018.6 mb 0.00 in0.0 mm 0.00 in0.0 mm 0.00 in0.0 mm
03:18 PM 71.6°F22.0°C 63.3°F17.4°C 75% 7.0 mph WSW11.3 kmh WSW 17.0 mph27.4 kmh 30.08 in1018.6 mb 0.00 in0.0 mm 0.00 in0.0 mm 0.00 in0.0 mm
03:21 PM 71.8°F22.1°C 63.3°F17.4°C 75% 7.0 mph WSW11.3 kmh WSW 17.0 mph27.4 kmh 30.08 in1018.6 mb 0.00 in0.0 mm 0.00 in0.0 mm 0.00 in0.0 mm
03:24 PM 71.8°F22.1°C 63.5°F17.5°C 75% 7.0 mph WSW11.3 kmh WSW 17.0 mph27.4 kmh 30.08 in1018.6 mb 0.00 in0.0 mm 0.00 in0.0 mm 0.00 in0.0 mm
03:27 PM 71.4°F21.9°C 62.8°F17.1°C 74% 8.0 mph SW12.9 kmh SW 18.0 mph29.0 kmh 30.08 in1018.6 mb 0.00 in0.0 mm 0.00 in0.0 mm 0.00 in0.0 mm
03:30 PM 71.2°F21.8°C 62.4°F16.9°C 74% 8.0 mph SW12.9 kmh SW 18.0 mph29.0 kmh 30.08 in1018.6 mb 0.00 in0.0 mm 0.00 in0.0 mm 0.00 in0.0 mm
03:33 PM 71.1°F21.7°C 62.2°F16.8°C 74% 8.0 mph SW12.9 kmh SW 18.0 mph29.0 kmh 30.07 in1018.3 mb 0.00 in0.0 mm 0.00 in0.0 mm 0.00 in0.0 mm
03:36 PM 70.9°F21.6°C 62.6°F17.0°C 75% 8.0 mph SW12.9 kmh SW 17.0 mph27.4 kmh 30.07 in1018.3 mb 0.00 in0.0 mm 0.00 in0.0 mm 0.00 in0.0 mm
03:39 PM 71.1°F21.7°C 62.6°F17.0°C 75% 8.0 mph SW12.9 kmh SW 18.0 mph29.0 kmh 30.07 in1018.3 mb 0.00 in0.0 mm 0.00 in0.0 mm 0.00 in0.0 mm
03:42 PM 71.2°F21.8°C 62.8°F17.1°C 75% 8.0 mph SW12.9 kmh SW 18.0 mph29.0 kmh 30.07 in1018.3 mb 0.00 in0.0 mm 0.00 in0.0 mm 0.00 in0.0 mm
03:45 PM 71.2°F21.8°C 62.4°F16.9°C 74% 8.0 mph SW12.9 kmh SW 18.0 mph29.0 kmh 30.07 in1018.3 mb 0.00 in0.0 mm 0.00 in0.0 mm 0.00 in0.0 mm
03:48 PM 70.9°F21.6°C 62.1°F16.7°C 74% 8.0 mph SW12.9 kmh SW 21.0 mph33.8 kmh 30.07 in1018.3 mb 0.00 in0.0 mm 0.00 in0.0 mm 0.00 in0.0 mm
03:51 PM 70.0°F21.1°C 61.3°F16.3°C 74% 9.0 mph SW14.5 kmh SW 24.0 mph38.6 kmh 30.08 in1018.6 mb 0.00 in0.0 mm 0.00 in0.0 mm 0.00 in0.0 mm
03:54 PM 69.4°F20.8°C 61.2°F16.2°C 75% 9.0 mph SW14.5 kmh SW 24.0 mph38.6 kmh 30.07 in1018.3 mb 0.00 in0.0 mm 0.00 in0.0 mm 0.00 in0.0 mm
03:57 PM 69.1°F20.6°C 61.2°F16.2°C 76% 9.0 mph SW14.5 kmh SW 24.0 mph38.6 kmh 30.07 in1018.3 mb 0.00 in0.0 mm 0.00 in0.0 mm 0.00 in0.0 mm
04:00 PM 68.7°F20.4°C 60.8°F16.0°C 76% 10.0 mph SW16.1 kmh SW 24.0 mph38.6 kmh 30.07 in1018.3 mb 0.00 in0.0 mm 0.00 in0.0 mm 0.00 in0.0 mm
04:03 PM 68.4°F20.2°C 61.0°F16.1°C 77% 9.0 mph WSW14.5 kmh WSW 19.0 mph30.6 kmh 30.07 in1018.3 mb 0.00 in0.0 mm 0.00 in0.0 mm 0.00 in0.0 mm
04:06 PM 68.2°F20.1°C 61.2°F16.2°C 78% 9.0 mph WSW14.5 kmh WSW 19.0 mph30.6 kmh 30.08 in1018.6 mb 0.00 in0.0 mm 0.00 in0.0 mm 0.00 in0.0 mm
04:09 PM 68.2°F20.1°C 61.3°F16.3°C 79% 8.0 mph WSW12.9 kmh WSW 19.0 mph30.6 kmh 30.08 in1018.6 mb 0.00 in0.0 mm 0.00 in0.0 mm 0.00 in0.0 mm
04:12 PM 67.8°F19.9°C 61.2°F16.2°C 79% 7.0 mph WSW11.3 kmh WSW 14.0 mph22.5 kmh 30.07 in1018.3 mb 0.00 in0.0 mm 0.00 in0.0 mm 0.00 in0.0 mm
04:15 PM 67.8°F19.9°C 61.0°F16.1°C 79% 7.0 mph WSW11.3 kmh WSW 14.0 mph22.5 kmh 30.07 in1018.3 mb 0.00 in0.0 mm 0.00 in0.0 mm 0.00 in0.0 mm
04:18 PM 67.6°F19.8°C 60.8°F16.0°C 79% 8.0 mph WSW12.9 kmh WSW 19.0 mph30.6 kmh 30.07 in1018.3 mb 0.00 in0.0 mm 0.00 in0.0 mm 0.00 in0.0 mm
04:21 PM 67.5°F19.7°C 61.0°F16.1°C 80% 8.0 mph WSW12.9 kmh WSW 19.0 mph30.6 kmh 30.07 in1018.3 mb 0.00 in0.0 mm 0.00 in0.0 mm 0.00 in0.0 mm
04:24 PM 67.5°F19.7°C 61.0°F16.1°C 80% 9.0 mph WSW14.5 kmh WSW 19.0 mph30.6 kmh 30.07 in1018.3 mb 0.00 in0.0 mm 0.00 in0.0 mm 0.00 in0.0 mm
04:27 PM 67.5°F19.7°C 61.3°F16.3°C 81% 9.0 mph WSW14.5 kmh WSW 19.0 mph30.6 kmh 30.07 in1018.3 mb 0.00 in0.0 mm 0.00 in0.0 mm 0.00 in0.0 mm
04:30 PM 67.5°F19.7°C 61.3°F16.3°C 81% 8.0 mph SW12.9 kmh SW 18.0 mph29.0 kmh 30.07 in1018.3 mb 0.00 in0.0 mm 0.00 in0.0 mm 0.00 in0.0 mm
04:33 PM 67.5°F19.7°C 61.5°F16.4°C 81% 7.0 mph SW11.3 kmh SW 16.0 mph25.7 kmh 30.07 in1018.3 mb 0.00 in0.0 mm 0.00 in0.0 mm 0.00 in0.0 mm
04:36 PM 67.5°F19.7°C 61.3°F16.3°C 81% 6.0 mph SW9.7 kmh SW 14.0 mph22.5 kmh 30.07 in1018.3 mb 0.00 in0.0 mm 0.00 in0.0 mm 0.00 in0.0 mm
04:39 PM 67.1°F19.5°C 60.8°F16.0°C 80% 6.0 mph SW9.7 kmh SW 14.0 mph22.5 kmh 30.07 in1018.3 mb 0.00 in0.0 mm 0.00 in0.0 mm 0.00 in0.0 mm
04:42 PM 66.7°F19.3°C 60.6°F15.9°C 81% 7.0 mph SW11.3 kmh SW 17.0 mph27.4 kmh 30.07 in1018.3 mb 0.00 in0.0 mm 0.00 in0.0 mm 0.00 in0.0 mm
04:45 PM 66.4°F19.1°C 60.3°F15.7°C 81% 8.0 mph SW12.9 kmh SW 17.0 mph27.4 kmh 30.07 in1018.3 mb 0.00 in0.0 mm 0.00 in0.0 mm 0.00 in0.0 mm
04:48 PM 66.0°F18.9°C 60.3°F15.7°C 82% 8.0 mph SW12.9 kmh SW 17.0 mph27.4 kmh 30.07 in1018.3 mb 0.00 in0.0 mm 0.00 in0.0 mm 0.00 in0.0 mm
04:51 PM 65.8°F18.8°C 60.1°F15.6°C 82% 7.0 mph SW11.3 kmh SW 14.0 mph22.5 kmh 30.07 in1018.3 mb 0.00 in0.0 mm 0.00 in0.0 mm 0.00 in0.0 mm
04:54 PM 65.7°F18.7°C 60.3°F15.7°C 83% 7.0 mph SW11.3 kmh SW 15.0 mph24.1 kmh 30.07 in1018.3 mb 0.00 in0.0 mm 0.00 in0.0 mm 0.00 in0.0 mm
04:57 PM 65.5°F18.6°C 60.1°F15.6°C 83% 7.0 mph SW11.3 kmh SW 15.0 mph24.1 kmh 30.07 in1018.3 mb 0.00 in0.0 mm 0.00 in0.0 mm 0.00 in0.0 mm
05:00 PM 65.3°F18.5°C 60.1°F15.6°C 83% 7.0 mph SW11.3 kmh SW 15.0 mph24.1 kmh 30.07 in1018.3 mb 0.00 in0.0 mm 0.00 in0.0 mm 0.00 in0.0 mm
05:03 PM 65.1°F18.4°C 60.1°F15.6°C 84% 7.0 mph SW11.3 kmh SW 15.0 mph24.1 kmh 30.07 in1018.3 mb 0.00 in0.0 mm 0.00 in0.0 mm 0.00 in0.0 mm
05:06 PM 64.9°F18.3°C 59.9°F15.5°C 84% 7.0 mph SW11.3 kmh SW 15.0 mph24.1 kmh 30.07 in1018.3 mb 0.00 in0.0 mm 0.00 in0.0 mm 0.00 in0.0 mm
05:09 PM 64.8°F18.2°C 59.7°F15.4°C 84% 8.0 mph SW12.9 kmh SW 15.0 mph24.1 kmh 30.07 in1018.3 mb 0.00 in0.0 mm 0.00 in0.0 mm 0.00 in0.0 mm
05:12 PM 64.6°F18.1°C 59.9°F15.5°C 85% 8.0 mph SW12.9 kmh SW 17.0 mph27.4 kmh 30.07 in1018.3 mb 0.00 in0.0 mm 0.00 in0.0 mm 0.00 in0.0 mm
05:15 PM 64.2°F17.9°C 59.5°F15.3°C 85% 7.0 mph SW11.3 kmh SW 17.0 mph27.4 kmh 30.07 in1018.3 mb 0.00 in0.0 mm 0.00 in0.0 mm 0.00 in0.0 mm
05:18 PM 64.0°F17.8°C 59.4°F15.2°C 85% 7.0 mph SW11.3 kmh SW 17.0 mph27.4 kmh 30.07 in1018.3 mb 0.00 in0.0 mm 0.00 in0.0 mm 0.00 in0.0 mm
05:21 PM 63.9°F17.7°C 59.5°F15.3°C 86% 6.0 mph SW9.7 kmh SW 13.0 mph20.9 kmh 30.07 in1018.3 mb 0.00 in0.0 mm 0.00 in0.0 mm 0.00 in0.0 mm
05:24 PM 63.9°F17.7°C 59.5°F15.3°C 86% 6.0 mph SW9.7 kmh SW 13.0 mph20.9 kmh 30.07 in1018.3 mb 0.00 in0.0 mm 0.00 in0.0 mm 0.00 in0.0 mm
05:27 PM 63.9°F17.7°C 59.5°F15.3°C 86% 6.0 mph SW9.7 kmh SW 13.0 mph20.9 kmh 30.07 in1018.3 mb 0.00 in0.0 mm 0.00 in0.0 mm 0.00 in0.0 mm
05:30 PM 63.7°F17.6°C 59.7°F15.4°C 87% 7.0 mph SW11.3 kmh SW 15.0 mph24.1 kmh 30.07 in1018.3 mb 0.00 in0.0 mm 0.00 in0.0 mm 0.00 in0.0 mm
05:33 PM 63.7°F17.6°C 59.7°F15.4°C 87% 7.0 mph SW11.3 kmh SW 15.0 mph24.1 kmh 30.07 in1018.3 mb 0.00 in0.0 mm 0.00 in0.0 mm 0.00 in0.0 mm
05:36 PM 63.5°F17.5°C 59.5°F15.3°C 87% 7.0 mph SW11.3 kmh SW 15.0 mph24.1 kmh 30.06 in1017.9 mb 0.00 in0.0 mm 0.00 in0.0 mm 0.00 in0.0 mm
05:39 PM 63.3°F17.4°C 59.5°F15.3°C 87% 7.0 mph SW11.3 kmh SW 15.0 mph24.1 kmh 30.06 in1017.9 mb 0.00 in0.0 mm 0.00 in0.0 mm 0.00 in0.0 mm
05:42 PM 63.3°F17.4°C 59.4°F15.2°C 87% 7.0 mph SW11.3 kmh SW 19.0 mph30.6 kmh 30.06 in1017.9 mb 0.00 in0.0 mm 0.00 in0.0 mm 0.00 in0.0 mm
05:45 PM 63.1°F17.3°C 59.5°F15.3°C 88% 8.0 mph SW12.9 kmh SW 20.0 mph32.2 kmh 30.06 in1017.9 mb 0.00 in0.0 mm 0.00 in0.0 mm 0.00 in0.0 mm
05:48 PM 63.0°F17.2°C 59.4°F15.2°C 88% 9.0 mph SW14.5 kmh SW 20.0 mph32.2 kmh 30.06 in1017.9 mb 0.00 in0.0 mm 0.00 in0.0 mm 0.00 in0.0 mm
05:51 PM 62.8°F17.1°C 59.2°F15.1°C 88% 9.0 mph SW14.5 kmh SW 25.0 mph40.2 kmh 30.06 in1017.9 mb 0.00 in0.0 mm 0.00 in0.0 mm 0.00 in0.0 mm
05:54 PM 62.6°F17.0°C 59.0°F15.0°C 88% 10.0 mph SW16.1 kmh SW 25.0 mph40.2 kmh 30.06 in1017.9 mb 0.00 in0.0 mm 0.00 in0.0 mm 0.00 in0.0 mm
05:57 PM 62.4°F16.9°C 59.2°F15.1°C 89% 9.0 mph SW14.5 kmh SW 25.0 mph40.2 kmh 30.06 in1017.9 mb 0.00 in0.0 mm 0.00 in0.0 mm 0.00 in0.0 mm
06:00 PM 62.4°F16.9°C 59.2°F15.1°C 89% 10.0 mph SW16.1 kmh SW 25.0 mph40.2 kmh 30.06 in1017.9 mb 0.00 in0.0 mm 0.00 in0.0 mm 0.00 in0.0 mm
06:03 PM 62.2°F16.8°C 59.0°F15.0°C 89% 9.0 mph SW14.5 kmh SW 16.0 mph25.7 kmh 30.06 in1017.9 mb 0.00 in0.0 mm 0.00 in0.0 mm 0.00 in0.0 mm
06:06 PM 62.2°F16.8°C 59.0°F15.0°C 89% 9.0 mph SW14.5 kmh SW 16.0 mph25.7 kmh 30.06 in1017.9 mb 0.00 in0.0 mm 0.00 in0.0 mm 0.00 in0.0 mm
06:09 PM 62.1°F16.7°C 59.2°F15.1°C 90% 9.0 mph SW14.5 kmh SW 16.0 mph25.7 kmh 30.06 in1017.9 mb 0.00 in0.0 mm 0.00 in0.0 mm 0.00 in0.0 mm
06:12 PM 62.1°F16.7°C 59.0°F15.0°C 90% 8.0 mph SW12.9 kmh SW 16.0 mph25.7 kmh 30.06 in1017.9 mb 0.00 in0.0 mm 0.00 in0.0 mm 0.00 in0.0 mm
06:15 PM 61.9°F16.6°C 59.0°F15.0°C 90% 9.0 mph SW14.5 kmh SW 17.0 mph27.4 kmh 30.06 in1017.9 mb 0.00 in0.0 mm 0.00 in0.0 mm 0.00 in0.0 mm
06:18 PM 61.9°F16.6°C 58.8°F14.9°C 90% 9.0 mph SW14.5 kmh SW 20.0 mph32.2 kmh 30.06 in1017.9 mb 0.00 in0.0 mm 0.00 in0.0 mm 0.00 in0.0 mm
06:21 PM 61.7°F16.5°C 58.8°F14.9°C 90% 9.0 mph SW14.5 kmh SW 20.0 mph32.2 kmh 30.06 in1017.9 mb 0.00 in0.0 mm 0.00 in0.0 mm 0.00 in0.0 mm
06:24 PM 61.5°F16.4°C 58.6°F14.8°C 90% 9.0 mph SW14.5 kmh SW 20.0 mph32.2 kmh 30.06 in1017.9 mb 0.00 in0.0 mm 0.00 in0.0 mm 0.00 in0.0 mm
06:27 PM 61.5°F16.4°C 58.5°F14.7°C 90% 9.0 mph SW14.5 kmh SW 19.0 mph30.6 kmh 30.06 in1017.9 mb 0.00 in0.0 mm 0.00 in0.0 mm 0.00 in0.0 mm
06:30 PM 61.3°F16.3°C 58.5°F14.7°C 90% 8.0 mph SW12.9 kmh SW 17.0 mph27.4 kmh 30.06 in1017.9 mb 0.00 in0.0 mm 0.00 in0.0 mm 0.00 in0.0 mm
06:33 PM 61.3°F16.3°C 58.6°F14.8°C 91% 9.0 mph SW14.5 kmh SW 20.0 mph32.2 kmh 30.06 in1017.9 mb 0.00 in0.0 mm 0.00 in0.0 mm 0.00 in0.0 mm
06:36 PM 61.2°F16.2°C 58.6°F14.8°C 91% 9.0 mph SW14.5 kmh SW 20.0 mph32.2 kmh 30.06 in1017.9 mb 0.00 in0.0 mm 0.00 in0.0 mm 0.00 in0.0 mm
06:39 PM 61.2°F16.2°C 58.5°F14.7°C 91% 9.0 mph SW14.5 kmh SW 20.0 mph32.2 kmh 30.06 in1017.9 mb 0.00 in0.0 mm 0.00 in0.0 mm 0.00 in0.0 mm
06:42 PM 61.0°F16.1°C 58.6°F14.8°C 92% 8.0 mph SW12.9 kmh SW 20.0 mph32.2 kmh 30.06 in1017.9 mb 0.00 in0.0 mm 0.00 in0.0 mm 0.00 in0.0 mm
06:45 PM 61.0°F16.1°C 58.6°F14.8°C 92% 7.0 mph SW11.3 kmh SW 18.0 mph29.0 kmh 30.05 in1017.6 mb 0.00 in0.0 mm 0.00 in0.0 mm 0.00 in0.0 mm
06:48 PM 61.0°F16.1°C 58.6°F14.8°C 92% 7.0 mph SW11.3 kmh SW 18.0 mph29.0 kmh 30.06 in1017.9 mb 0.00 in0.0 mm 0.00 in0.0 mm 0.00 in0.0 mm
06:51 PM 60.8°F16.0°C 58.5°F14.7°C 92% 7.0 mph SW11.3 kmh SW 18.0 mph29.0 kmh 30.06 in1017.9 mb 0.00 in0.0 mm 0.00 in0.0 mm 0.00 in0.0 mm
06:54 PM 60.6°F15.9°C 58.3°F14.6°C 92% 7.0 mph SW11.3 kmh SW 18.0 mph29.0 kmh 30.06 in1017.9 mb 0.00 in0.0 mm 0.00 in0.0 mm 0.00 in0.0 mm
06:57 PM 60.6°F15.9°C 58.3°F14.6°C 92% 7.0 mph SW11.3 kmh SW 16.0 mph25.7 kmh 30.06 in1017.9 mb 0.00 in0.0 mm 0.00 in0.0 mm 0.00 in0.0 mm
07:00 PM 60.6°F15.9°C 58.3°F14.6°C 92% 7.0 mph SW11.3 kmh SW 18.0 mph29.0 kmh 30.05 in1017.6 mb 0.00 in0.0 mm 0.00 in0.0 mm 0.00 in0.0 mm
07:03 PM 60.6°F15.9°C 58.3°F14.6°C 92% 7.0 mph SW11.3 kmh SW 18.0 mph29.0 kmh 30.05 in1017.6 mb 0.00 in0.0 mm 0.00 in0.0 mm 0.00 in0.0 mm
07:06 PM 60.6°F15.9°C 58.6°F14.8°C 93% 7.0 mph SW11.3 kmh SW 18.0 mph29.0 kmh 30.05 in1017.6 mb 0.00 in0.0 mm 0.00 in0.0 mm 0.00 in0.0 mm
07:09 PM 60.6°F15.9°C 58.6°F14.8°C 93% 7.0 mph SW11.3 kmh SW 17.0 mph27.4 kmh 30.05 in1017.6 mb 0.01 in0.3 mm 0.20 in5.1 mm 0.01 in0.3 mm
07:12 PM 60.6°F15.9°C 58.6°F14.8°C 93% 7.0 mph SW11.3 kmh SW 17.0 mph27.4 kmh 30.05 in1017.6 mb 0.01 in0.3 mm 0.00 in0.0 mm 0.01 in0.3 mm
07:15 PM 60.6°F15.9°C 58.6°F14.8°C 93% 7.0 mph SW11.3 kmh SW 17.0 mph27.4 kmh 30.05 in1017.6 mb 0.01 in0.3 mm 0.00 in0.0 mm 0.01 in0.3 mm
07:18 PM 60.4°F15.8°C 58.5°F14.7°C 93% 7.0 mph SW11.3 kmh SW 20.0 mph32.2 kmh 30.05 in1017.6 mb 0.01 in0.3 mm 0.00 in0.0 mm 0.01 in0.3 mm
07:21 PM 60.4°F15.8°C 58.3°F14.6°C 93% 8.0 mph SW12.9 kmh SW 20.0 mph32.2 kmh 30.05 in1017.6 mb 0.01 in0.3 mm 0.00 in0.0 mm 0.01 in0.3 mm
07:24 PM 60.3°F15.7°C 58.3°F14.6°C 93% 8.0 mph SSW12.9 kmh SSW 20.0 mph32.2 kmh 30.05 in1017.6 mb 0.01 in0.3 mm 0.00 in0.0 mm 0.01 in0.3 mm
07:27 PM 60.3°F15.7°C 58.6°F14.8°C 94% 9.0 mph SW14.5 kmh SW 20.0 mph32.2 kmh 30.05 in1017.6 mb 0.01 in0.3 mm 0.00 in0.0 mm 0.01 in0.3 mm
07:30 PM 60.3°F15.7°C 58.6°F14.8°C 94% 8.0 mph SSW12.9 kmh SSW 16.0 mph25.7 kmh 30.05 in1017.6 mb 0.01 in0.3 mm 0.00 in0.0 mm 0.01 in0.3 mm
07:33 PM 60.3°F15.7°C 58.5°F14.7°C 94% 8.0 mph SSW12.9 kmh SSW 16.0 mph25.7 kmh 30.05 in1017.6 mb 0.02 in0.5 mm 0.20 in5.1 mm 0.02 in0.5 mm
07:36 PM 60.3°F15.7°C 58.5°F14.7°C 94% 8.0 mph SSW12.9 kmh SSW 17.0 mph27.4 kmh 30.05 in1017.6 mb 0.02 in0.5 mm 0.00 in0.0 mm 0.02 in0.5 mm
07:39 PM 60.1°F15.6°C 58.3°F14.6°C 94% 8.0 mph SSW12.9 kmh SSW 17.0 mph27.4 kmh 30.05 in1017.6 mb 0.02 in0.5 mm 0.00 in0.0 mm 0.02 in0.5 mm
07:42 PM 60.1°F15.6°C 58.3°F14.6°C 94% 8.0 mph SSW12.9 kmh SSW 17.0 mph27.4 kmh 30.05 in1017.6 mb 0.02 in0.5 mm 0.00 in0.0 mm 0.02 in0.5 mm
07:45 PM 59.9°F15.5°C 58.1°F14.5°C 94% 8.0 mph S12.9 kmh S 17.0 mph27.4 kmh 30.04 in1017.3 mb 0.02 in0.5 mm 0.00 in0.0 mm 0.02 in0.5 mm
07:48 PM 59.7°F15.4°C 58.1°F14.5°C 94% 9.0 mph S14.5 kmh S 17.0 mph27.4 kmh 30.04 in1017.3 mb 0.02 in0.5 mm 0.00 in0.0 mm 0.02 in0.5 mm
07:51 PM 59.7°F15.4°C 58.1°F14.5°C 94% 9.0 mph S14.5 kmh S 21.0 mph33.8 kmh 30.04 in1017.3 mb 0.02 in0.5 mm 0.00 in0.0 mm 0.02 in0.5 mm
07:54 PM 59.7°F15.4°C 58.1°F14.5°C 94% 10.0 mph S16.1 kmh S 21.0 mph33.8 kmh 30.04 in1017.3 mb 0.02 in0.5 mm 0.00 in0.0 mm 0.02 in0.5 mm
07:57 PM 59.7°F15.4°C 58.1°F14.5°C 94% 9.0 mph SSW14.5 kmh SSW 21.0 mph33.8 kmh 30.04 in1017.3 mb 0.02 in0.5 mm 0.00 in0.0 mm 0.02 in0.5 mm
08:00 PM 59.7°F15.4°C 58.1°F14.5°C 94% 9.0 mph SSW14.5 kmh SSW 21.0 mph33.8 kmh 30.04 in1017.3 mb 0.02 in0.5 mm 0.00 in0.0 mm 0.02 in0.5 mm
08:03 PM 59.7°F15.4°C 58.1°F14.5°C 94% 8.0 mph SSW12.9 kmh SSW 16.0 mph25.7 kmh 30.04 in1017.3 mb 0.02 in0.5 mm 0.00 in0.0 mm 0.02 in0.5 mm
08:06 PM 59.7°F15.4°C 58.1°F14.5°C 94% 7.0 mph SSW11.3 kmh SSW 17.0 mph27.4 kmh 30.04 in1017.3 mb 0.02 in0.5 mm 0.00 in0.0 mm 0.02 in0.5 mm
08:09 PM 59.7°F15.4°C 58.1°F14.5°C 94% 7.0 mph SSW11.3 kmh SSW 17.0 mph27.4 kmh 30.04 in1017.3 mb 0.01 in0.3 mm 0.00 in0.0 mm 0.02 in0.5 mm
08:12 PM 59.7°F15.4°C 58.1°F14.5°C 94% 7.0 mph S11.3 kmh S 17.0 mph27.4 kmh 30.04 in1017.3 mb 0.01 in0.3 mm 0.00 in0.0 mm 0.02 in0.5 mm
08:15 PM 59.7°F15.4°C 58.1°F14.5°C 94% 7.0 mph S11.3 kmh S 17.0 mph27.4 kmh 30.04 in1017.3 mb 0.01 in0.3 mm 0.00 in0.0 mm 0.02 in0.5 mm
08:18 PM 59.7°F15.4°C 58.1°F14.5°C 94% 7.0 mph SSW11.3 kmh SSW 14.0 mph22.5 kmh 30.04 in1017.3 mb 0.01 in0.3 mm 0.00 in0.0 mm 0.02 in0.5 mm
08:21 PM 59.7°F15.4°C 58.1°F14.5°C 94% 7.0 mph SSW11.3 kmh SSW 14.0 mph22.5 kmh 30.04 in1017.3 mb 0.01 in0.3 mm 0.00 in0.0 mm 0.02 in0.5 mm
08:24 PM 59.7°F15.4°C 58.1°F14.5°C 94% 8.0 mph SSW12.9 kmh SSW 15.0 mph24.1 kmh 30.03 in1016.9 mb 0.01 in0.3 mm 0.00 in0.0 mm 0.02 in0.5 mm
08:27 PM 59.7°F15.4°C 58.1°F14.5°C 94% 8.0 mph SSW12.9 kmh SSW 15.0 mph24.1 kmh 30.03 in1016.9 mb 0.01 in0.3 mm 0.00 in0.0 mm 0.02 in0.5 mm
08:30 PM 59.7°F15.4°C 58.1°F14.5°C 94% 8.0 mph SSW12.9 kmh SSW 15.0 mph24.1 kmh 30.04 in1017.3 mb 0.01 in0.3 mm 0.00 in0.0 mm 0.02 in0.5 mm
08:33 PM 59.7°F15.4°C 58.1°F14.5°C 94% 8.0 mph SSW12.9 kmh SSW 17.0 mph27.4 kmh 30.04 in1017.3 mb 0.00 in0.0 mm 0.00 in0.0 mm 0.02 in0.5 mm
08:36 PM 59.7°F15.4°C 58.1°F14.5°C 94% 8.0 mph SW12.9 kmh SW 20.0 mph32.2 kmh 30.04 in1017.3 mb 0.00 in0.0 mm 0.00 in0.0 mm 0.02 in0.5 mm
08:39 PM 59.7°F15.4°C 58.1°F14.5°C 94% 8.0 mph SW12.9 kmh SW 20.0 mph32.2 kmh 30.04 in1017.3 mb 0.00 in0.0 mm 0.00 in0.0 mm 0.02 in0.5 mm
08:42 PM 59.7°F15.4°C 58.1°F14.5°C 94% 8.0 mph SW12.9 kmh SW 20.0 mph32.2 kmh 30.04 in1017.3 mb 0.00 in0.0 mm 0.00 in0.0 mm 0.02 in0.5 mm
08:45 PM 59.7°F15.4°C 58.1°F14.5°C 94% 8.0 mph SW12.9 kmh SW 20.0 mph32.2 kmh 30.04 in1017.3 mb 0.00 in0.0 mm 0.00 in0.0 mm 0.02 in0.5 mm
08:48 PM 59.7°F15.4°C 58.1°F14.5°C 94% 8.0 mph SW12.9 kmh SW 16.0 mph25.7 kmh 30.04 in1017.3 mb 0.00 in0.0 mm 0.00 in0.0 mm 0.02 in0.5 mm
08:51 PM 59.7°F15.4°C 58.1°F14.5°C 94% 8.0 mph SW12.9 kmh SW 19.0 mph30.6 kmh 30.04 in1017.3 mb 0.00 in0.0 mm 0.00 in0.0 mm 0.02 in0.5 mm
08:54 PM 59.7°F15.4°C 58.1°F14.5°C 94% 8.0 mph SW12.9 kmh SW 19.0 mph30.6 kmh 30.04 in1017.3 mb 0.00 in0.0 mm 0.00 in0.0 mm 0.02 in0.5 mm
08:57 PM 59.7°F15.4°C 58.1°F14.5°C 94% 8.0 mph SW12.9 kmh SW 19.0 mph30.6 kmh 30.04 in1017.3 mb 0.00 in0.0 mm 0.00 in0.0 mm 0.02 in0.5 mm
09:00 PM 59.7°F15.4°C 58.1°F14.5°C 94% 9.0 mph SW14.5 kmh SW 19.0 mph30.6 kmh 30.04 in1017.3 mb 0.00 in0.0 mm 0.00 in0.0 mm 0.02 in0.5 mm
09:03 PM 59.7°F15.4°C 58.1°F14.5°C 94% 8.0 mph SW12.9 kmh SW 19.0 mph30.6 kmh 30.04 in1017.3 mb 0.00 in0.0 mm 0.00 in0.0 mm 0.02 in0.5 mm
09:06 PM 59.7°F15.4°C 58.1°F14.5°C 94% 8.0 mph SW12.9 kmh SW 17.0 mph27.4 kmh 30.04 in1017.3 mb 0.00 in0.0 mm 0.00 in0.0 mm 0.02 in0.5 mm
09:09 PM 59.7°F15.4°C 58.1°F14.5°C 94% 8.0 mph SW12.9 kmh SW 17.0 mph27.4 kmh 30.04 in1017.3 mb 0.00 in0.0 mm 0.00 in0.0 mm 0.02 in0.5 mm
09:12 PM 59.7°F15.4°C 58.1°F14.5°C 94% 8.0 mph SW12.9 kmh SW 16.0 mph25.7 kmh 30.04 in1017.3 mb 0.00 in0.0 mm 0.00 in0.0 mm 0.02 in0.5 mm
09:15 PM 59.7°F15.4°C 58.1°F14.5°C 94% 8.0 mph SW12.9 kmh SW 17.0 mph27.4 kmh 30.04 in1017.3 mb 0.00 in0.0 mm 0.00 in0.0 mm 0.02 in0.5 mm
09:18 PM 59.7°F15.4°C 58.1°F14.5°C 94% 7.0 mph SW11.3 kmh SW 17.0 mph27.4 kmh 30.04 in1017.3 mb 0.00 in0.0 mm 0.00 in0.0 mm 0.02 in0.5 mm
09:21 PM 59.7°F15.4°C 58.1°F14.5°C 94% 7.0 mph SW11.3 kmh SW 17.0 mph27.4 kmh 30.04 in1017.3 mb 0.00 in0.0 mm 0.00 in0.0 mm 0.02 in0.5 mm
09:24 PM 59.7°F15.4°C 58.1°F14.5°C 94% 7.0 mph SW11.3 kmh SW 18.0 mph29.0 kmh 30.04 in1017.3 mb 0.00 in0.0 mm 0.00 in0.0 mm 0.02 in0.5 mm
09:27 PM 59.7°F15.4°C 58.1°F14.5°C 94% 7.0 mph SW11.3 kmh SW 18.0 mph29.0 kmh 30.04 in1017.3 mb 0.00 in0.0 mm 0.00 in0.0 mm 0.02 in0.5 mm
09:30 PM 59.7°F15.4°C 58.1°F14.5°C 94% 8.0 mph SW12.9 kmh SW 18.0 mph29.0 kmh 30.04 in1017.3 mb 0.00 in0.0 mm 0.00 in0.0 mm 0.02 in0.5 mm
09:33 PM 59.7°F15.4°C 58.1°F14.5°C 94% 7.0 mph SW11.3 kmh SW 18.0 mph29.0 kmh 30.04 in1017.3 mb 0.00 in0.0 mm 0.00 in0.0 mm 0.02 in0.5 mm
09:36 PM 59.7°F15.4°C 58.1°F14.5°C 94% 7.0 mph SW11.3 kmh SW 16.0 mph25.7 kmh 30.04 in1017.3 mb 0.00 in0.0 mm 0.00 in0.0 mm 0.02 in0.5 mm
09:39 PM 59.7°F15.4°C 58.1°F14.5°C 94% 7.0 mph SW11.3 kmh SW 21.0 mph33.8 kmh 30.04 in1017.3 mb 0.00 in0.0 mm 0.00 in0.0 mm 0.02 in0.5 mm
09:42 PM 59.7°F15.4°C 58.1°F14.5°C 94% 7.0 mph SW11.3 kmh SW 21.0 mph33.8 kmh 30.04 in1017.3 mb 0.00 in0.0 mm 0.00 in0.0 mm 0.02 in0.5 mm
09:45 PM 59.7°F15.4°C 58.1°F14.5°C 94% 8.0 mph SW12.9 kmh SW 21.0 mph33.8 kmh 30.04 in1017.3 mb 0.00 in0.0 mm 0.00 in0.0 mm 0.02 in0.5 mm
09:48 PM 59.7°F15.4°C 58.1°F14.5°C 94% 8.0 mph SW12.9 kmh SW 20.0 mph32.2 kmh 30.04 in1017.3 mb 0.00 in0.0 mm 0.00 in0.0 mm 0.02 in0.5 mm
09:51 PM 59.7°F15.4°C 58.1°F14.5°C 94% 8.0 mph SW12.9 kmh SW 20.0 mph32.2 kmh 30.04 in1017.3 mb 0.00 in0.0 mm 0.00 in0.0 mm 0.02 in0.5 mm
09:54 PM 59.7°F15.4°C 58.1°F14.5°C 94% 8.0 mph SW12.9 kmh SW 17.0 mph27.4 kmh 30.04 in1017.3 mb 0.00 in0.0 mm 0.00 in0.0 mm 0.02 in0.5 mm
09:57 PM 59.7°F15.4°C 58.1°F14.5°C 94% 8.0 mph SW12.9 kmh SW 17.0 mph27.4 kmh 30.04 in1017.3 mb 0.00 in0.0 mm 0.00 in0.0 mm 0.02 in0.5 mm
10:00 PM 59.7°F15.4°C 58.1°F14.5°C 94% 8.0 mph SW12.9 kmh SW 18.0 mph29.0 kmh 30.04 in1017.3 mb 0.00 in0.0 mm 0.00 in0.0 mm 0.02 in0.5 mm
10:03 PM 59.7°F15.4°C 58.1°F14.5°C 94% 8.0 mph SW12.9 kmh SW 18.0 mph29.0 kmh 30.04 in1017.3 mb 0.00 in0.0 mm 0.00 in0.0 mm 0.02 in0.5 mm
10:06 PM 59.7°F15.4°C 58.1°F14.5°C 94% 8.0 mph SW12.9 kmh SW 18.0 mph29.0 kmh 30.04 in1017.3 mb 0.00 in0.0 mm 0.00 in0.0 mm 0.02 in0.5 mm
10:09 PM 59.7°F15.4°C 58.1°F14.5°C 94% 8.0 mph SW12.9 kmh SW 16.0 mph25.7 kmh 30.03 in1016.9 mb 0.00 in0.0 mm 0.00 in0.0 mm 0.02 in0.5 mm
10:12 PM 59.7°F15.4°C 58.1°F14.5°C 94% 8.0 mph SW12.9 kmh SW 17.0 mph27.4 kmh 30.03 in1016.9 mb 0.00 in0.0 mm 0.00 in0.0 mm 0.02 in0.5 mm
10:15 PM 59.7°F15.4°C 58.1°F14.5°C 94% 8.0 mph SW12.9 kmh SW 17.0 mph27.4 kmh 30.03 in1016.9 mb 0.00 in0.0 mm 0.00 in0.0 mm 0.02 in0.5 mm
10:18 PM 59.7°F15.4°C 58.1°F14.5°C 94% 8.0 mph SW12.9 kmh SW 17.0 mph27.4 kmh 30.03 in1016.9 mb 0.00 in0.0 mm 0.00 in0.0 mm 0.02 in0.5 mm
10:21 PM 59.7°F15.4°C 58.1°F14.5°C 94% 7.0 mph SW11.3 kmh SW 15.0 mph24.1 kmh 30.03 in1016.9 mb 0.00 in0.0 mm 0.00 in0.0 mm 0.02 in0.5 mm
10:24 PM 59.7°F15.4°C 58.1°F14.5°C 94% 8.0 mph SW12.9 kmh SW 15.0 mph24.1 kmh 30.03 in1016.9 mb 0.00 in0.0 mm 0.00 in0.0 mm 0.02 in0.5 mm
10:27 PM 59.7°F15.4°C 58.1°F14.5°C 94% 8.0 mph SW12.9 kmh SW 15.0 mph24.1 kmh 30.03 in1016.9 mb 0.00 in0.0 mm 0.00 in0.0 mm 0.02 in0.5 mm
10:30 PM 59.7°F15.4°C 58.1°F14.5°C 94% 8.0 mph SW12.9 kmh SW 15.0 mph24.1 kmh 30.03 in1016.9 mb 0.00 in0.0 mm 0.00 in0.0 mm 0.02 in0.5 mm
10:33 PM 59.7°F15.4°C 58.1°F14.5°C 94% 8.0 mph SW12.9 kmh SW 16.0 mph25.7 kmh 30.03 in1016.9 mb 0.00 in0.0 mm 0.00 in0.0 mm 0.02 in0.5 mm
10:36 PM 59.7°F15.4°C 58.1°F14.5°C 94% 8.0 mph SW12.9 kmh SW 17.0 mph27.4 kmh 30.03 in1016.9 mb 0.00 in0.0 mm 0.00 in0.0 mm 0.02 in0.5 mm
10:39 PM 59.7°F15.4°C 58.1°F14.5°C 94% 9.0 mph SW14.5 kmh SW 18.0 mph29.0 kmh 30.03 in1016.9 mb 0.00 in0.0 mm 0.00 in0.0 mm 0.02 in0.5 mm
10:42 PM 59.7°F15.4°C 58.1°F14.5°C 94% 8.0 mph SW12.9 kmh SW 18.0 mph29.0 kmh 30.03 in1016.9 mb 0.00 in0.0 mm 0.00 in0.0 mm 0.02 in0.5 mm
10:45 PM 59.7°F15.4°C 58.1°F14.5°C 94% 8.0 mph SW12.9 kmh SW 18.0 mph29.0 kmh 30.03 in1016.9 mb 0.00 in0.0 mm 0.00 in0.0 mm 0.02 in0.5 mm
10:48 PM 59.7°F15.4°C 58.1°F14.5°C 94% 7.0 mph SW11.3 kmh SW 16.0 mph25.7 kmh 30.03 in1016.9 mb 0.00 in0.0 mm 0.00 in0.0 mm 0.02 in0.5 mm
10:51 PM 59.7°F15.4°C 58.1°F14.5°C 94% 8.0 mph SW12.9 kmh SW 19.0 mph30.6 kmh 30.03 in1016.9 mb 0.00 in0.0 mm 0.00 in0.0 mm 0.02 in0.5 mm
10:54 PM 59.7°F15.4°C 58.1°F14.5°C 94% 8.0 mph SW12.9 kmh SW 19.0 mph30.6 kmh 30.03 in1016.9 mb 0.00 in0.0 mm 0.00 in0.0 mm 0.02 in0.5 mm
10:57 PM 59.7°F15.4°C 58.1°F14.5°C 94% 8.0 mph SW12.9 kmh SW 19.0 mph30.6 kmh 30.03 in1016.9 mb 0.00 in0.0 mm 0.00 in0.0 mm 0.02 in0.5 mm
11:00 PM 59.7°F15.4°C 58.1°F14.5°C 94% 8.0 mph SW12.9 kmh SW 21.0 mph33.8 kmh 30.03 in1016.9 mb 0.00 in0.0 mm 0.00 in0.0 mm 0.02 in0.5 mm
11:03 PM 59.7°F15.4°C 58.1°F14.5°C 94% 8.0 mph SW12.9 kmh SW 21.0 mph33.8 kmh 30.03 in1016.9 mb 0.00 in0.0 mm 0.00 in0.0 mm 0.02 in0.5 mm
11:06 PM 59.7°F15.4°C 58.1°F14.5°C 94% 8.0 mph SW12.9 kmh SW 21.0 mph33.8 kmh 30.02 in1016.6 mb 0.00 in0.0 mm 0.00 in0.0 mm 0.02 in0.5 mm
11:09 PM 59.7°F15.4°C 58.1°F14.5°C 94% 8.0 mph SW12.9 kmh SW 18.0 mph29.0 kmh 30.02 in1016.6 mb 0.00 in0.0 mm 0.00 in0.0 mm 0.02 in0.5 mm
11:12 PM 59.7°F15.4°C 58.1°F14.5°C 94% 8.0 mph SW12.9 kmh SW 18.0 mph29.0 kmh 30.02 in1016.6 mb 0.00 in0.0 mm 0.00 in0.0 mm 0.02 in0.5 mm
11:15 PM 59.7°F15.4°C 58.1°F14.5°C 94% 8.0 mph SW12.9 kmh SW 18.0 mph29.0 kmh 30.02 in1016.6 mb 0.00 in0.0 mm 0.00 in0.0 mm 0.02 in0.5 mm
11:18 PM 59.7°F15.4°C 58.1°F14.5°C 94% 8.0 mph SW12.9 kmh SW 18.0 mph29.0 kmh 30.02 in1016.6 mb 0.00 in0.0 mm 0.00 in0.0 mm 0.02 in0.5 mm
11:21 PM 59.7°F15.4°C 58.1°F14.5°C 94% 8.0 mph SW12.9 kmh SW 18.0 mph29.0 kmh 30.02 in1016.6 mb 0.00 in0.0 mm 0.00 in0.0 mm 0.02 in0.5 mm
11:24 PM 59.7°F15.4°C 58.1°F14.5°C 94% 8.0 mph SW12.9 kmh SW 16.0 mph25.7 kmh 30.02 in1016.6 mb 0.00 in0.0 mm 0.00 in0.0 mm 0.02 in0.5 mm
11:27 PM 59.7°F15.4°C 58.1°F14.5°C 94% 8.0 mph SW12.9 kmh SW 16.0 mph25.7 kmh 30.02 in1016.6 mb 0.00 in0.0 mm 0.00 in0.0 mm 0.02 in0.5 mm
11:30 PM 59.7°F15.4°C 58.1°F14.5°C 94% 8.0 mph SW12.9 kmh SW 22.0 mph35.4 kmh 30.01 in1016.3 mb 0.00 in0.0 mm 0.00 in0.0 mm 0.02 in0.5 mm
11:36 PM 59.7°F15.4°C 58.1°F14.5°C 94% 8.0 mph SW12.9 kmh SW 23.0 mph37.0 kmh 30.01 in1016.3 mb 0.00 in0.0 mm 0.00 in0.0 mm 0.02 in0.5 mm
11:39 PM 59.7°F15.4°C 58.1°F14.5°C 94% 8.0 mph SW12.9 kmh SW 23.0 mph37.0 kmh 30.01 in1016.3 mb 0.00 in0.0 mm 0.00 in0.0 mm 0.02 in0.5 mm
11:42 PM 59.7°F15.4°C 58.1°F14.5°C 94% 8.0 mph SW12.9 kmh SW 23.0 mph37.0 kmh 30.01 in1016.3 mb 0.00 in0.0 mm 0.00 in0.0 mm 0.02 in0.5 mm
11:45 PM 59.7°F15.4°C 58.1°F14.5°C 94% 8.0 mph SW12.9 kmh SW 19.0 mph30.6 kmh 30.01 in1016.3 mb 0.00 in0.0 mm 0.00 in0.0 mm 0.02 in0.5 mm
11:48 PM 59.7°F15.4°C 58.1°F14.5°C 94% 8.0 mph SW12.9 kmh SW 19.0 mph30.6 kmh 30.01 in1016.3 mb 0.00 in0.0 mm 0.00 in0.0 mm 0.02 in0.5 mm
11:51 PM 59.7°F15.4°C 58.1°F14.5°C 94% 8.0 mph SW12.9 kmh SW 17.0 mph27.4 kmh 30.01 in1016.3 mb 0.00 in0.0 mm 0.00 in0.0 mm 0.02 in0.5 mm
11:54 PM 59.7°F15.4°C 58.1°F14.5°C 94% 8.0 mph SW12.9 kmh SW 17.0 mph27.4 kmh 30.01 in1016.3 mb 0.00 in0.0 mm 0.00 in0.0 mm 0.02 in0.5 mm
11:57 PM 59.7°F15.4°C 58.1°F14.5°C 94% 9.0 mph SW14.5 kmh SW 19.0 mph30.6 kmh 30.01 in1016.3 mb 0.00 in0.0 mm 0.00 in0.0 mm 0.02 in0.5 mm